<?xml version="1.0" encoding="UTF-8" standalone="no" ?>
<gpx xmlns="http://www.topografix.com/GPX/1/1" xmlns:xsi="http://www.w3.org/2001/XMLSchema-instance" xsi:schemaLocation="http://www.topografix.com/GPX/1/1 http://www.topografix.com/GPX/1/1/gpx.xsd" version="1.1" creator="VisuGPX - https://www.visugpx.com">
  <metadata>
    <name>Etape en Corse </name>
    <desc><![CDATA[Etape 4 Plage O gradelle-Scandola
Etape 5 Carges- Sagone
Etape 6 Baie de Liscia]]></desc>
  </metadata>
  <wpt lat="43.22555" lon="6.44935">
    <ele>54</ele>
    <name><![CDATA[parking]]></name>
    <desc><![CDATA[16-MAI-15 9:26:59]]></desc>
    <cmt><![CDATA[16-MAI-15 9:26:59]]></cmt>
    <type><![CDATA[user]]></type>
  </wpt>
  <wpt lat="43.23505" lon="6.4006">
    <ele>423</ele>
    <name><![CDATA[parking02]]></name>
    <desc><![CDATA[16-MAI-15 12:19:33]]></desc>
    <cmt><![CDATA[16-MAI-15 12:19:33]]></cmt>
    <type><![CDATA[user]]></type>
  </wpt>
  <wpt lat="43.21304" lon="6.4631">
    <ele>42</ele>
    <name><![CDATA[piste]]></name>
    <desc><![CDATA[Chemin]]></desc>
    <cmt><![CDATA[Chemin]]></cmt>
    <type><![CDATA[user]]></type>
  </wpt>
  <trk>
    <name><![CDATA[Tracé 007]]></name>
    <trkseg>
      <trkpt lat="42.04822" lon="8.74906">
        <ele>-22.88</ele>
        <time>2017-06-05T15:25:38Z</time>
      </trkpt>
      <trkpt lat="42.04816" lon="8.74897">
        <ele>-22.9</ele>
        <time>2017-06-05T15:26:08Z</time>
      </trkpt>
      <trkpt lat="42.04827" lon="8.74896">
        <ele>-22.45</ele>
        <time>2017-06-05T15:26:34Z</time>
      </trkpt>
      <trkpt lat="42.04822" lon="8.74909">
        <ele>-22.62</ele>
        <time>2017-06-05T15:27:09Z</time>
      </trkpt>
      <trkpt lat="42.04822" lon="8.74897">
        <ele>-22.48</ele>
        <time>2017-06-05T15:27:51Z</time>
      </trkpt>
      <trkpt lat="42.04892" lon="8.74729">
        <ele>-17.95</ele>
        <time>2017-06-06T06:40:50Z</time>
      </trkpt>
      <trkpt lat="42.04905" lon="8.74738">
        <ele>-3.75</ele>
        <time>2017-06-06T06:41:06Z</time>
      </trkpt>
      <trkpt lat="42.04902" lon="8.74732">
        <ele>-3.95</ele>
        <time>2017-06-06T06:41:39Z</time>
      </trkpt>
      <trkpt lat="42.04896" lon="8.7473">
        <ele>-3.55</ele>
        <time>2017-06-06T06:42:09Z</time>
      </trkpt>
      <trkpt lat="42.04898" lon="8.74731">
        <ele>-2.68</ele>
        <time>2017-06-06T06:42:33Z</time>
      </trkpt>
      <trkpt lat="42.04902" lon="8.74728">
        <ele>-3.43</ele>
        <time>2017-06-06T06:42:52Z</time>
      </trkpt>
      <trkpt lat="42.049" lon="8.74729">
        <ele>-3.26</ele>
        <time>2017-06-06T06:43:12Z</time>
      </trkpt>
      <trkpt lat="42.04899" lon="8.74733">
        <ele>-2.25</ele>
        <time>2017-06-06T06:43:33Z</time>
      </trkpt>
      <trkpt lat="42.04902" lon="8.74732">
        <ele>-2.1</ele>
        <time>2017-06-06T06:43:53Z</time>
      </trkpt>
      <trkpt lat="42.04901" lon="8.74731">
        <ele>-2.02</ele>
        <time>2017-06-06T06:44:17Z</time>
      </trkpt>
      <trkpt lat="42.04908" lon="8.74731">
        <ele>-2.22</ele>
        <time>2017-06-06T06:44:41Z</time>
      </trkpt>
      <trkpt lat="42.04907" lon="8.7473">
        <ele>-2.08</ele>
        <time>2017-06-06T06:44:57Z</time>
      </trkpt>
      <trkpt lat="42.04904" lon="8.74731">
        <ele>-2.03</ele>
        <time>2017-06-06T06:45:14Z</time>
      </trkpt>
      <trkpt lat="42.04901" lon="8.74731">
        <ele>-1.66</ele>
        <time>2017-06-06T06:45:35Z</time>
      </trkpt>
      <trkpt lat="42.04903" lon="8.74719">
        <ele>-3.45</ele>
        <time>2017-06-06T06:45:56Z</time>
      </trkpt>
      <trkpt lat="42.04905" lon="8.74706">
        <ele>-3.62</ele>
        <time>2017-06-06T06:46:16Z</time>
      </trkpt>
      <trkpt lat="42.04906" lon="8.74697">
        <ele>-3.91</ele>
        <time>2017-06-06T06:46:25Z</time>
      </trkpt>
      <trkpt lat="42.0491" lon="8.74663">
        <ele>-4.17</ele>
        <time>2017-06-06T06:46:42Z</time>
      </trkpt>
      <trkpt lat="42.0491" lon="8.74635">
        <ele>-4.18</ele>
        <time>2017-06-06T06:46:56Z</time>
      </trkpt>
      <trkpt lat="42.04913" lon="8.74607">
        <ele>-4.11</ele>
        <time>2017-06-06T06:47:10Z</time>
      </trkpt>
      <trkpt lat="42.04913" lon="8.74579">
        <ele>-3.78</ele>
        <time>2017-06-06T06:47:23Z</time>
      </trkpt>
      <trkpt lat="42.04908" lon="8.74558">
        <ele>-3.64</ele>
        <time>2017-06-06T06:47:35Z</time>
      </trkpt>
      <trkpt lat="42.04903" lon="8.74536">
        <ele>-3.71</ele>
        <time>2017-06-06T06:47:46Z</time>
      </trkpt>
      <trkpt lat="42.04895" lon="8.74515">
        <ele>-3.72</ele>
        <time>2017-06-06T06:47:58Z</time>
      </trkpt>
      <trkpt lat="42.04886" lon="8.74486">
        <ele>-3.49</ele>
        <time>2017-06-06T06:48:13Z</time>
      </trkpt>
      <trkpt lat="42.0488" lon="8.74463">
        <ele>-3.51</ele>
        <time>2017-06-06T06:48:24Z</time>
      </trkpt>
      <trkpt lat="42.04872" lon="8.74432">
        <ele>-3.68</ele>
        <time>2017-06-06T06:48:37Z</time>
      </trkpt>
      <trkpt lat="42.04863" lon="8.744">
        <ele>-3.58</ele>
        <time>2017-06-06T06:48:51Z</time>
      </trkpt>
      <trkpt lat="42.04859" lon="8.74372">
        <ele>-3.49</ele>
        <time>2017-06-06T06:49:04Z</time>
      </trkpt>
      <trkpt lat="42.04851" lon="8.7434">
        <ele>-3.35</ele>
        <time>2017-06-06T06:49:19Z</time>
      </trkpt>
      <trkpt lat="42.04844" lon="8.74298">
        <ele>-3.37</ele>
        <time>2017-06-06T06:49:34Z</time>
      </trkpt>
      <trkpt lat="42.04833" lon="8.74259">
        <ele>-3.06</ele>
        <time>2017-06-06T06:49:49Z</time>
      </trkpt>
      <trkpt lat="42.04822" lon="8.74222">
        <ele>-3.07</ele>
        <time>2017-06-06T06:50:04Z</time>
      </trkpt>
      <trkpt lat="42.04815" lon="8.74176">
        <ele>-3.2</ele>
        <time>2017-06-06T06:50:21Z</time>
      </trkpt>
      <trkpt lat="42.04808" lon="8.74143">
        <ele>-3.15</ele>
        <time>2017-06-06T06:50:34Z</time>
      </trkpt>
      <trkpt lat="42.048" lon="8.74105">
        <ele>-3.06</ele>
        <time>2017-06-06T06:50:47Z</time>
      </trkpt>
      <trkpt lat="42.04789" lon="8.74074">
        <ele>-3.15</ele>
        <time>2017-06-06T06:50:59Z</time>
      </trkpt>
      <trkpt lat="42.04777" lon="8.74033">
        <ele>-3.16</ele>
        <time>2017-06-06T06:51:14Z</time>
      </trkpt>
      <trkpt lat="42.04767" lon="8.73996">
        <ele>-3.3</ele>
        <time>2017-06-06T06:51:28Z</time>
      </trkpt>
      <trkpt lat="42.04759" lon="8.7396">
        <ele>-3.15</ele>
        <time>2017-06-06T06:51:43Z</time>
      </trkpt>
      <trkpt lat="42.04749" lon="8.73921">
        <ele>-3.04</ele>
        <time>2017-06-06T06:51:57Z</time>
      </trkpt>
      <trkpt lat="42.04741" lon="8.73884">
        <ele>-3.02</ele>
        <time>2017-06-06T06:52:11Z</time>
      </trkpt>
      <trkpt lat="42.04734" lon="8.73851">
        <ele>-3.34</ele>
        <time>2017-06-06T06:52:25Z</time>
      </trkpt>
      <trkpt lat="42.04728" lon="8.73817">
        <ele>-2.89</ele>
        <time>2017-06-06T06:52:38Z</time>
      </trkpt>
      <trkpt lat="42.04728" lon="8.73787">
        <ele>-2.8</ele>
        <time>2017-06-06T06:52:53Z</time>
      </trkpt>
      <trkpt lat="42.04726" lon="8.73759">
        <ele>-3.01</ele>
        <time>2017-06-06T06:53:05Z</time>
      </trkpt>
      <trkpt lat="42.04714" lon="8.73713">
        <ele>-2.87</ele>
        <time>2017-06-06T06:53:23Z</time>
      </trkpt>
      <trkpt lat="42.04704" lon="8.73671">
        <ele>-2.81</ele>
        <time>2017-06-06T06:53:38Z</time>
      </trkpt>
      <trkpt lat="42.04699" lon="8.73626">
        <ele>-2.76</ele>
        <time>2017-06-06T06:53:53Z</time>
      </trkpt>
      <trkpt lat="42.04695" lon="8.73584">
        <ele>-2.75</ele>
        <time>2017-06-06T06:54:07Z</time>
      </trkpt>
      <trkpt lat="42.0469" lon="8.73541">
        <ele>-2.7</ele>
        <time>2017-06-06T06:54:22Z</time>
      </trkpt>
      <trkpt lat="42.04685" lon="8.73498">
        <ele>-2.86</ele>
        <time>2017-06-06T06:54:37Z</time>
      </trkpt>
      <trkpt lat="42.0468" lon="8.73458">
        <ele>-2.72</ele>
        <time>2017-06-06T06:54:51Z</time>
      </trkpt>
      <trkpt lat="42.04672" lon="8.7342">
        <ele>-2.51</ele>
        <time>2017-06-06T06:55:07Z</time>
      </trkpt>
      <trkpt lat="42.04666" lon="8.73391">
        <ele>-2.12</ele>
        <time>2017-06-06T06:55:19Z</time>
      </trkpt>
      <trkpt lat="42.0466" lon="8.73345">
        <ele>-2.21</ele>
        <time>2017-06-06T06:55:35Z</time>
      </trkpt>
      <trkpt lat="42.04651" lon="8.73308">
        <ele>-2.29</ele>
        <time>2017-06-06T06:55:48Z</time>
      </trkpt>
      <trkpt lat="42.04639" lon="8.73267">
        <ele>-2.64</ele>
        <time>2017-06-06T06:56:04Z</time>
      </trkpt>
      <trkpt lat="42.04628" lon="8.73242">
        <ele>-2.25</ele>
        <time>2017-06-06T06:56:17Z</time>
      </trkpt>
      <trkpt lat="42.04615" lon="8.73207">
        <ele>-2.23</ele>
        <time>2017-06-06T06:56:31Z</time>
      </trkpt>
      <trkpt lat="42.04604" lon="8.7317">
        <ele>-2.73</ele>
        <time>2017-06-06T06:56:45Z</time>
      </trkpt>
      <trkpt lat="42.04593" lon="8.73133">
        <ele>-2.42</ele>
        <time>2017-06-06T06:57:01Z</time>
      </trkpt>
      <trkpt lat="42.04584" lon="8.73096">
        <ele>-2.35</ele>
        <time>2017-06-06T06:57:16Z</time>
      </trkpt>
      <trkpt lat="42.04576" lon="8.73063">
        <ele>-2.52</ele>
        <time>2017-06-06T06:57:29Z</time>
      </trkpt>
      <trkpt lat="42.04569" lon="8.7303">
        <ele>-2.18</ele>
        <time>2017-06-06T06:57:42Z</time>
      </trkpt>
      <trkpt lat="42.0456" lon="8.72998">
        <ele>-2.39</ele>
        <time>2017-06-06T06:57:54Z</time>
      </trkpt>
      <trkpt lat="42.04549" lon="8.7296">
        <ele>-2.5</ele>
        <time>2017-06-06T06:58:08Z</time>
      </trkpt>
      <trkpt lat="42.04538" lon="8.72923">
        <ele>-2.6</ele>
        <time>2017-06-06T06:58:22Z</time>
      </trkpt>
      <trkpt lat="42.04527" lon="8.72882">
        <ele>-2.36</ele>
        <time>2017-06-06T06:58:38Z</time>
      </trkpt>
      <trkpt lat="42.04519" lon="8.72846">
        <ele>-2.24</ele>
        <time>2017-06-06T06:58:51Z</time>
      </trkpt>
      <trkpt lat="42.04504" lon="8.72802">
        <ele>-2.11</ele>
        <time>2017-06-06T06:59:08Z</time>
      </trkpt>
      <trkpt lat="42.04489" lon="8.72763">
        <ele>-1.99</ele>
        <time>2017-06-06T06:59:24Z</time>
      </trkpt>
      <trkpt lat="42.04477" lon="8.7273">
        <ele>-1.98</ele>
        <time>2017-06-06T06:59:37Z</time>
      </trkpt>
      <trkpt lat="42.04468" lon="8.72704">
        <ele>-2.19</ele>
        <time>2017-06-06T06:59:49Z</time>
      </trkpt>
      <trkpt lat="42.04461" lon="8.72675">
        <ele>-2.26</ele>
        <time>2017-06-06T07:00:00Z</time>
      </trkpt>
      <trkpt lat="42.04446" lon="8.72628">
        <ele>-2.24</ele>
        <time>2017-06-06T07:00:18Z</time>
      </trkpt>
      <trkpt lat="42.04436" lon="8.72598">
        <ele>-2.19</ele>
        <time>2017-06-06T07:00:33Z</time>
      </trkpt>
      <trkpt lat="42.04422" lon="8.72558">
        <ele>-1.95</ele>
        <time>2017-06-06T07:00:49Z</time>
      </trkpt>
      <trkpt lat="42.0441" lon="8.72523">
        <ele>-2.13</ele>
        <time>2017-06-06T07:01:03Z</time>
      </trkpt>
      <trkpt lat="42.04398" lon="8.72478">
        <ele>-1.87</ele>
        <time>2017-06-06T07:01:20Z</time>
      </trkpt>
      <trkpt lat="42.04383" lon="8.72443">
        <ele>-1.71</ele>
        <time>2017-06-06T07:01:35Z</time>
      </trkpt>
      <trkpt lat="42.04366" lon="8.72403">
        <ele>-1.78</ele>
        <time>2017-06-06T07:01:52Z</time>
      </trkpt>
      <trkpt lat="42.04353" lon="8.7237">
        <ele>-1.53</ele>
        <time>2017-06-06T07:02:05Z</time>
      </trkpt>
      <trkpt lat="42.04342" lon="8.7234">
        <ele>-1.64</ele>
        <time>2017-06-06T07:02:18Z</time>
      </trkpt>
      <trkpt lat="42.04329" lon="8.723">
        <ele>-1.54</ele>
        <time>2017-06-06T07:02:34Z</time>
      </trkpt>
      <trkpt lat="42.04315" lon="8.72259">
        <ele>-1.3</ele>
        <time>2017-06-06T07:02:51Z</time>
      </trkpt>
      <trkpt lat="42.04304" lon="8.72229">
        <ele>-1.39</ele>
        <time>2017-06-06T07:03:05Z</time>
      </trkpt>
      <trkpt lat="42.04294" lon="8.72202">
        <ele>-1.39</ele>
        <time>2017-06-06T07:03:20Z</time>
      </trkpt>
      <trkpt lat="42.04278" lon="8.7218">
        <ele>-1.26</ele>
        <time>2017-06-06T07:03:35Z</time>
      </trkpt>
      <trkpt lat="42.04261" lon="8.7216">
        <ele>-1.14</ele>
        <time>2017-06-06T07:03:51Z</time>
      </trkpt>
      <trkpt lat="42.04254" lon="8.72148">
        <ele>-1.27</ele>
        <time>2017-06-06T07:04:15Z</time>
      </trkpt>
      <trkpt lat="42.0424" lon="8.72128">
        <ele>-0.99</ele>
        <time>2017-06-06T07:04:28Z</time>
      </trkpt>
      <trkpt lat="42.04222" lon="8.72109">
        <ele>-1.05</ele>
        <time>2017-06-06T07:04:42Z</time>
      </trkpt>
      <trkpt lat="42.04201" lon="8.72089">
        <ele>-0.9</ele>
        <time>2017-06-06T07:04:57Z</time>
      </trkpt>
      <trkpt lat="42.04184" lon="8.7206">
        <ele>-0.97</ele>
        <time>2017-06-06T07:05:11Z</time>
      </trkpt>
      <trkpt lat="42.04166" lon="8.72027">
        <ele>-0.74</ele>
        <time>2017-06-06T07:05:26Z</time>
      </trkpt>
      <trkpt lat="42.04152" lon="8.72001">
        <ele>-0.86</ele>
        <time>2017-06-06T07:05:38Z</time>
      </trkpt>
      <trkpt lat="42.04136" lon="8.71971">
        <ele>-0.65</ele>
        <time>2017-06-06T07:05:51Z</time>
      </trkpt>
      <trkpt lat="42.04118" lon="8.71941">
        <ele>-0.32</ele>
        <time>2017-06-06T07:06:04Z</time>
      </trkpt>
      <trkpt lat="42.041" lon="8.71908">
        <ele>-0.01</ele>
        <time>2017-06-06T07:06:18Z</time>
      </trkpt>
      <trkpt lat="42.04082" lon="8.7188">
        <ele>-0.07</ele>
        <time>2017-06-06T07:06:31Z</time>
      </trkpt>
      <trkpt lat="42.04062" lon="8.71849">
        <ele>-0.05</ele>
        <time>2017-06-06T07:06:45Z</time>
      </trkpt>
      <trkpt lat="42.04049" lon="8.71822">
        <ele>0.02</ele>
        <time>2017-06-06T07:06:57Z</time>
      </trkpt>
      <trkpt lat="42.04035" lon="8.71792">
        <ele>0.06</ele>
        <time>2017-06-06T07:07:09Z</time>
      </trkpt>
      <trkpt lat="42.04022" lon="8.7176">
        <ele>-0.05</ele>
        <time>2017-06-06T07:07:22Z</time>
      </trkpt>
      <trkpt lat="42.04007" lon="8.7173">
        <ele>-0.06</ele>
        <time>2017-06-06T07:07:35Z</time>
      </trkpt>
      <trkpt lat="42.03986" lon="8.71699">
        <ele>-0.05</ele>
        <time>2017-06-06T07:07:49Z</time>
      </trkpt>
      <trkpt lat="42.03965" lon="8.71664">
        <ele>0.16</ele>
        <time>2017-06-06T07:08:04Z</time>
      </trkpt>
      <trkpt lat="42.03947" lon="8.71631">
        <ele>0.04</ele>
        <time>2017-06-06T07:08:18Z</time>
      </trkpt>
      <trkpt lat="42.03934" lon="8.71599">
        <ele>0.07</ele>
        <time>2017-06-06T07:08:32Z</time>
      </trkpt>
      <trkpt lat="42.03921" lon="8.71573">
        <ele>0.28</ele>
        <time>2017-06-06T07:08:43Z</time>
      </trkpt>
      <trkpt lat="42.03907" lon="8.71545">
        <ele>0.16</ele>
        <time>2017-06-06T07:08:55Z</time>
      </trkpt>
      <trkpt lat="42.03887" lon="8.7152">
        <ele>0.23</ele>
        <time>2017-06-06T07:09:08Z</time>
      </trkpt>
      <trkpt lat="42.03867" lon="8.71486">
        <ele>0.19</ele>
        <time>2017-06-06T07:09:23Z</time>
      </trkpt>
      <trkpt lat="42.03853" lon="8.71463">
        <ele>0.47</ele>
        <time>2017-06-06T07:09:33Z</time>
      </trkpt>
      <trkpt lat="42.03836" lon="8.71441">
        <ele>0.46</ele>
        <time>2017-06-06T07:09:44Z</time>
      </trkpt>
      <trkpt lat="42.03826" lon="8.71413">
        <ele>0.52</ele>
        <time>2017-06-06T07:09:56Z</time>
      </trkpt>
      <trkpt lat="42.03826" lon="8.71395">
        <ele>0.54</ele>
        <time>2017-06-06T07:10:05Z</time>
      </trkpt>
      <trkpt lat="42.03827" lon="8.71391">
        <ele>0.6</ele>
        <time>2017-06-06T07:10:08Z</time>
      </trkpt>
      <trkpt lat="42.03831" lon="8.71383">
        <ele>0.46</ele>
        <time>2017-06-06T07:10:18Z</time>
      </trkpt>
      <trkpt lat="42.03833" lon="8.71377">
        <ele>0.54</ele>
        <time>2017-06-06T07:10:22Z</time>
      </trkpt>
      <trkpt lat="42.03835" lon="8.71348">
        <ele>0.71</ele>
        <time>2017-06-06T07:10:36Z</time>
      </trkpt>
      <trkpt lat="42.03825" lon="8.71318">
        <ele>0.72</ele>
        <time>2017-06-06T07:10:49Z</time>
      </trkpt>
      <trkpt lat="42.03812" lon="8.71292">
        <ele>0.55</ele>
        <time>2017-06-06T07:11:00Z</time>
      </trkpt>
      <trkpt lat="42.03797" lon="8.71264">
        <ele>0.75</ele>
        <time>2017-06-06T07:11:13Z</time>
      </trkpt>
      <trkpt lat="42.03783" lon="8.71237">
        <ele>0.68</ele>
        <time>2017-06-06T07:11:25Z</time>
      </trkpt>
      <trkpt lat="42.03764" lon="8.71206">
        <ele>0.58</ele>
        <time>2017-06-06T07:11:38Z</time>
      </trkpt>
      <trkpt lat="42.03751" lon="8.7118">
        <ele>0.44</ele>
        <time>2017-06-06T07:11:50Z</time>
      </trkpt>
      <trkpt lat="42.03737" lon="8.71148">
        <ele>0.49</ele>
        <time>2017-06-06T07:12:03Z</time>
      </trkpt>
      <trkpt lat="42.03724" lon="8.71114">
        <ele>0.64</ele>
        <time>2017-06-06T07:12:16Z</time>
      </trkpt>
      <trkpt lat="42.03709" lon="8.71086">
        <ele>0.74</ele>
        <time>2017-06-06T07:12:27Z</time>
      </trkpt>
      <trkpt lat="42.03692" lon="8.71054">
        <ele>0.78</ele>
        <time>2017-06-06T07:12:40Z</time>
      </trkpt>
      <trkpt lat="42.03678" lon="8.71026">
        <ele>1.13</ele>
        <time>2017-06-06T07:12:52Z</time>
      </trkpt>
      <trkpt lat="42.03664" lon="8.70993">
        <ele>0.91</ele>
        <time>2017-06-06T07:13:05Z</time>
      </trkpt>
      <trkpt lat="42.0365" lon="8.70967">
        <ele>0.81</ele>
        <time>2017-06-06T07:13:16Z</time>
      </trkpt>
      <trkpt lat="42.03635" lon="8.70941">
        <ele>1.03</ele>
        <time>2017-06-06T07:13:27Z</time>
      </trkpt>
      <trkpt lat="42.03617" lon="8.70911">
        <ele>1.05</ele>
        <time>2017-06-06T07:13:40Z</time>
      </trkpt>
      <trkpt lat="42.03601" lon="8.70888">
        <ele>0.74</ele>
        <time>2017-06-06T07:13:51Z</time>
      </trkpt>
      <trkpt lat="42.03584" lon="8.70857">
        <ele>0.88</ele>
        <time>2017-06-06T07:14:04Z</time>
      </trkpt>
      <trkpt lat="42.03568" lon="8.70831">
        <ele>1.03</ele>
        <time>2017-06-06T07:14:16Z</time>
      </trkpt>
      <trkpt lat="42.0355" lon="8.70797">
        <ele>0.96</ele>
        <time>2017-06-06T07:14:30Z</time>
      </trkpt>
      <trkpt lat="42.03534" lon="8.70757">
        <ele>0.89</ele>
        <time>2017-06-06T07:14:45Z</time>
      </trkpt>
      <trkpt lat="42.03525" lon="8.70731">
        <ele>0.79</ele>
        <time>2017-06-06T07:14:56Z</time>
      </trkpt>
      <trkpt lat="42.03511" lon="8.70701">
        <ele>0.78</ele>
        <time>2017-06-06T07:15:08Z</time>
      </trkpt>
      <trkpt lat="42.03494" lon="8.70666">
        <ele>0.7</ele>
        <time>2017-06-06T07:15:22Z</time>
      </trkpt>
      <trkpt lat="42.03483" lon="8.70632">
        <ele>0.78</ele>
        <time>2017-06-06T07:15:35Z</time>
      </trkpt>
      <trkpt lat="42.03471" lon="8.70604">
        <ele>1.06</ele>
        <time>2017-06-06T07:15:46Z</time>
      </trkpt>
      <trkpt lat="42.03458" lon="8.7058">
        <ele>0.92</ele>
        <time>2017-06-06T07:15:56Z</time>
      </trkpt>
      <trkpt lat="42.03443" lon="8.70551">
        <ele>1.07</ele>
        <time>2017-06-06T07:16:08Z</time>
      </trkpt>
      <trkpt lat="42.03428" lon="8.7052">
        <ele>0.69</ele>
        <time>2017-06-06T07:16:20Z</time>
      </trkpt>
      <trkpt lat="42.03415" lon="8.70495">
        <ele>0.78</ele>
        <time>2017-06-06T07:16:30Z</time>
      </trkpt>
      <trkpt lat="42.03401" lon="8.70461">
        <ele>0.9</ele>
        <time>2017-06-06T07:16:43Z</time>
      </trkpt>
      <trkpt lat="42.03389" lon="8.70423">
        <ele>0.61</ele>
        <time>2017-06-06T07:16:56Z</time>
      </trkpt>
      <trkpt lat="42.03382" lon="8.70386">
        <ele>0.66</ele>
        <time>2017-06-06T07:17:09Z</time>
      </trkpt>
      <trkpt lat="42.03376" lon="8.70352">
        <ele>0.75</ele>
        <time>2017-06-06T07:17:21Z</time>
      </trkpt>
      <trkpt lat="42.03363" lon="8.7032">
        <ele>0.49</ele>
        <time>2017-06-06T07:17:35Z</time>
      </trkpt>
      <trkpt lat="42.03351" lon="8.70295">
        <ele>0.54</ele>
        <time>2017-06-06T07:17:45Z</time>
      </trkpt>
      <trkpt lat="42.0334" lon="8.70265">
        <ele>0.52</ele>
        <time>2017-06-06T07:17:56Z</time>
      </trkpt>
      <trkpt lat="42.03328" lon="8.70232">
        <ele>0.24</ele>
        <time>2017-06-06T07:18:08Z</time>
      </trkpt>
      <trkpt lat="42.03313" lon="8.70198">
        <ele>0.32</ele>
        <time>2017-06-06T07:18:21Z</time>
      </trkpt>
      <trkpt lat="42.03299" lon="8.70169">
        <ele>0.23</ele>
        <time>2017-06-06T07:18:35Z</time>
      </trkpt>
      <trkpt lat="42.03293" lon="8.70149">
        <ele>0.2</ele>
        <time>2017-06-06T07:18:48Z</time>
      </trkpt>
      <trkpt lat="42.03282" lon="8.70113">
        <ele>0.33</ele>
        <time>2017-06-06T07:19:02Z</time>
      </trkpt>
      <trkpt lat="42.03275" lon="8.70078">
        <ele>0.46</ele>
        <time>2017-06-06T07:19:14Z</time>
      </trkpt>
      <trkpt lat="42.03259" lon="8.70036">
        <ele>0.48</ele>
        <time>2017-06-06T07:19:30Z</time>
      </trkpt>
      <trkpt lat="42.03241" lon="8.69999">
        <ele>0.37</ele>
        <time>2017-06-06T07:19:46Z</time>
      </trkpt>
      <trkpt lat="42.03221" lon="8.69956">
        <ele>0.27</ele>
        <time>2017-06-06T07:20:03Z</time>
      </trkpt>
      <trkpt lat="42.03205" lon="8.6992">
        <ele>0.07</ele>
        <time>2017-06-06T07:20:18Z</time>
      </trkpt>
      <trkpt lat="42.03195" lon="8.69883">
        <ele>-0.02</ele>
        <time>2017-06-06T07:20:31Z</time>
      </trkpt>
      <trkpt lat="42.03183" lon="8.69844">
        <ele>0.17</ele>
        <time>2017-06-06T07:20:44Z</time>
      </trkpt>
      <trkpt lat="42.03171" lon="8.69811">
        <ele>0.1</ele>
        <time>2017-06-06T07:20:56Z</time>
      </trkpt>
      <trkpt lat="42.03155" lon="8.69768">
        <ele>0.04</ele>
        <time>2017-06-06T07:21:12Z</time>
      </trkpt>
      <trkpt lat="42.03142" lon="8.69736">
        <ele>0.52</ele>
        <time>2017-06-06T07:21:24Z</time>
      </trkpt>
      <trkpt lat="42.03123" lon="8.69691">
        <ele>0.29</ele>
        <time>2017-06-06T07:21:41Z</time>
      </trkpt>
      <trkpt lat="42.03114" lon="8.69648">
        <ele>0.06</ele>
        <time>2017-06-06T07:21:56Z</time>
      </trkpt>
      <trkpt lat="42.03105" lon="8.69607">
        <time>2017-06-06T07:22:10Z</time>
      </trkpt>
      <trkpt lat="42.03101" lon="8.69564">
        <ele>-0.02</ele>
        <time>2017-06-06T07:22:24Z</time>
      </trkpt>
      <trkpt lat="42.03096" lon="8.69529">
        <ele>-0.24</ele>
        <time>2017-06-06T07:22:36Z</time>
      </trkpt>
      <trkpt lat="42.03086" lon="8.69483">
        <ele>-0.26</ele>
        <time>2017-06-06T07:22:52Z</time>
      </trkpt>
      <trkpt lat="42.03081" lon="8.69445">
        <ele>-0.25</ele>
        <time>2017-06-06T07:23:05Z</time>
      </trkpt>
      <trkpt lat="42.03076" lon="8.69407">
        <ele>-0.19</ele>
        <time>2017-06-06T07:23:18Z</time>
      </trkpt>
      <trkpt lat="42.0307" lon="8.69374">
        <ele>-0.07</ele>
        <time>2017-06-06T07:23:29Z</time>
      </trkpt>
      <trkpt lat="42.03065" lon="8.69338">
        <time>2017-06-06T07:23:42Z</time>
      </trkpt>
      <trkpt lat="42.03059" lon="8.69299">
        <ele>-0.16</ele>
        <time>2017-06-06T07:23:55Z</time>
      </trkpt>
      <trkpt lat="42.03054" lon="8.69265">
        <ele>0.02</ele>
        <time>2017-06-06T07:24:07Z</time>
      </trkpt>
      <trkpt lat="42.03051" lon="8.69233">
        <ele>0.18</ele>
        <time>2017-06-06T07:24:18Z</time>
      </trkpt>
      <trkpt lat="42.03049" lon="8.69201">
        <ele>-0.06</ele>
        <time>2017-06-06T07:24:29Z</time>
      </trkpt>
      <trkpt lat="42.03039" lon="8.6917">
        <ele>0.35</ele>
        <time>2017-06-06T07:24:43Z</time>
      </trkpt>
      <trkpt lat="42.03024" lon="8.69138">
        <ele>0.33</ele>
        <time>2017-06-06T07:24:57Z</time>
      </trkpt>
      <trkpt lat="42.03008" lon="8.69103">
        <ele>0.45</ele>
        <time>2017-06-06T07:25:11Z</time>
      </trkpt>
      <trkpt lat="42.02995" lon="8.6907">
        <ele>0.36</ele>
        <time>2017-06-06T07:25:23Z</time>
      </trkpt>
      <trkpt lat="42.0299" lon="8.69044">
        <ele>0.52</ele>
        <time>2017-06-06T07:25:33Z</time>
      </trkpt>
      <trkpt lat="42.02981" lon="8.69">
        <ele>0.64</ele>
        <time>2017-06-06T07:25:48Z</time>
      </trkpt>
      <trkpt lat="42.02968" lon="8.68962">
        <ele>0.55</ele>
        <time>2017-06-06T07:26:02Z</time>
      </trkpt>
      <trkpt lat="42.02955" lon="8.68927">
        <ele>0.23</ele>
        <time>2017-06-06T07:26:15Z</time>
      </trkpt>
      <trkpt lat="42.02944" lon="8.68895">
        <ele>0.27</ele>
        <time>2017-06-06T07:26:27Z</time>
      </trkpt>
      <trkpt lat="42.02932" lon="8.68854">
        <ele>0.19</ele>
        <time>2017-06-06T07:26:42Z</time>
      </trkpt>
      <trkpt lat="42.02925" lon="8.6882">
        <ele>0.05</ele>
        <time>2017-06-06T07:26:54Z</time>
      </trkpt>
      <trkpt lat="42.02918" lon="8.68786">
        <ele>0.08</ele>
        <time>2017-06-06T07:27:06Z</time>
      </trkpt>
      <trkpt lat="42.02905" lon="8.68744">
        <ele>-0.07</ele>
        <time>2017-06-06T07:27:21Z</time>
      </trkpt>
      <trkpt lat="42.02898" lon="8.68706">
        <ele>0.07</ele>
        <time>2017-06-06T07:27:34Z</time>
      </trkpt>
      <trkpt lat="42.0289" lon="8.68673">
        <ele>-0.14</ele>
        <time>2017-06-06T07:27:46Z</time>
      </trkpt>
      <trkpt lat="42.02883" lon="8.68637">
        <ele>-0.31</ele>
        <time>2017-06-06T07:27:59Z</time>
      </trkpt>
      <trkpt lat="42.02876" lon="8.68613">
        <ele>-0.13</ele>
        <time>2017-06-06T07:28:09Z</time>
      </trkpt>
      <trkpt lat="42.02869" lon="8.68587">
        <ele>-0.56</ele>
        <time>2017-06-06T07:28:20Z</time>
      </trkpt>
      <trkpt lat="42.02853" lon="8.68551">
        <ele>-0.1</ele>
        <time>2017-06-06T07:28:34Z</time>
      </trkpt>
      <trkpt lat="42.0284" lon="8.6852">
        <ele>-0.27</ele>
        <time>2017-06-06T07:28:46Z</time>
      </trkpt>
      <trkpt lat="42.02824" lon="8.68489">
        <ele>-0.49</ele>
        <time>2017-06-06T07:29:00Z</time>
      </trkpt>
      <trkpt lat="42.02811" lon="8.68463">
        <ele>-0.82</ele>
        <time>2017-06-06T07:29:11Z</time>
      </trkpt>
      <trkpt lat="42.02797" lon="8.68427">
        <ele>-0.8</ele>
        <time>2017-06-06T07:29:25Z</time>
      </trkpt>
      <trkpt lat="42.02774" lon="8.68388">
        <ele>-0.97</ele>
        <time>2017-06-06T07:29:42Z</time>
      </trkpt>
      <trkpt lat="42.02762" lon="8.68353">
        <ele>-1.07</ele>
        <time>2017-06-06T07:29:55Z</time>
      </trkpt>
      <trkpt lat="42.02748" lon="8.68314">
        <ele>-1.27</ele>
        <time>2017-06-06T07:30:09Z</time>
      </trkpt>
      <trkpt lat="42.02732" lon="8.68273">
        <ele>-1.33</ele>
        <time>2017-06-06T07:30:24Z</time>
      </trkpt>
      <trkpt lat="42.02715" lon="8.68228">
        <ele>-1.61</ele>
        <time>2017-06-06T07:30:41Z</time>
      </trkpt>
      <trkpt lat="42.02694" lon="8.6819">
        <ele>-1.64</ele>
        <time>2017-06-06T07:30:57Z</time>
      </trkpt>
      <trkpt lat="42.02676" lon="8.68166">
        <ele>-1.8</ele>
        <time>2017-06-06T07:31:09Z</time>
      </trkpt>
      <trkpt lat="42.02656" lon="8.68144">
        <ele>-1.68</ele>
        <time>2017-06-06T07:31:21Z</time>
      </trkpt>
      <trkpt lat="42.02638" lon="8.68115">
        <ele>-1.93</ele>
        <time>2017-06-06T07:31:34Z</time>
      </trkpt>
      <trkpt lat="42.02622" lon="8.68087">
        <ele>-1.84</ele>
        <time>2017-06-06T07:31:47Z</time>
      </trkpt>
      <trkpt lat="42.02611" lon="8.68063">
        <ele>-1.81</ele>
        <time>2017-06-06T07:31:58Z</time>
      </trkpt>
      <trkpt lat="42.02599" lon="8.68036">
        <ele>-1.87</ele>
        <time>2017-06-06T07:32:09Z</time>
      </trkpt>
      <trkpt lat="42.02586" lon="8.68012">
        <ele>-2.09</ele>
        <time>2017-06-06T07:32:19Z</time>
      </trkpt>
      <trkpt lat="42.02569" lon="8.67988">
        <ele>-2.02</ele>
        <time>2017-06-06T07:32:31Z</time>
      </trkpt>
      <trkpt lat="42.02551" lon="8.67961">
        <ele>-2.02</ele>
        <time>2017-06-06T07:32:43Z</time>
      </trkpt>
      <trkpt lat="42.02524" lon="8.67932">
        <ele>-2.11</ele>
        <time>2017-06-06T07:33:00Z</time>
      </trkpt>
      <trkpt lat="42.02504" lon="8.67906">
        <ele>-2.04</ele>
        <time>2017-06-06T07:33:13Z</time>
      </trkpt>
      <trkpt lat="42.02486" lon="8.67872">
        <ele>-2.23</ele>
        <time>2017-06-06T07:33:27Z</time>
      </trkpt>
      <trkpt lat="42.02471" lon="8.67842">
        <ele>-2.22</ele>
        <time>2017-06-06T07:33:40Z</time>
      </trkpt>
      <trkpt lat="42.02459" lon="8.67818">
        <ele>-2.29</ele>
        <time>2017-06-06T07:33:50Z</time>
      </trkpt>
      <trkpt lat="42.02451" lon="8.6779">
        <ele>-2.5</ele>
        <time>2017-06-06T07:34:01Z</time>
      </trkpt>
      <trkpt lat="42.0244" lon="8.67757">
        <ele>-2.26</ele>
        <time>2017-06-06T07:34:14Z</time>
      </trkpt>
      <trkpt lat="42.0243" lon="8.67726">
        <ele>-2.31</ele>
        <time>2017-06-06T07:34:26Z</time>
      </trkpt>
      <trkpt lat="42.02418" lon="8.67692">
        <ele>-2.41</ele>
        <time>2017-06-06T07:34:40Z</time>
      </trkpt>
      <trkpt lat="42.02413" lon="8.67679">
        <ele>-2.51</ele>
        <time>2017-06-06T07:34:47Z</time>
      </trkpt>
      <trkpt lat="42.02403" lon="8.67656">
        <ele>-2.76</ele>
        <time>2017-06-06T07:34:59Z</time>
      </trkpt>
      <trkpt lat="42.02401" lon="8.67652">
        <ele>-2.7</ele>
        <time>2017-06-06T07:35:01Z</time>
      </trkpt>
      <trkpt lat="42.02388" lon="8.67624">
        <ele>-2.71</ele>
        <time>2017-06-06T07:35:16Z</time>
      </trkpt>
      <trkpt lat="42.02381" lon="8.67603">
        <ele>-2.78</ele>
        <time>2017-06-06T07:35:28Z</time>
      </trkpt>
      <trkpt lat="42.02367" lon="8.67571">
        <ele>-2.96</ele>
        <time>2017-06-06T07:35:42Z</time>
      </trkpt>
      <trkpt lat="42.02352" lon="8.67544">
        <ele>-3.03</ele>
        <time>2017-06-06T07:35:56Z</time>
      </trkpt>
      <trkpt lat="42.0235" lon="8.67541">
        <ele>-3.03</ele>
        <time>2017-06-06T07:35:58Z</time>
      </trkpt>
      <trkpt lat="42.02347" lon="8.67536">
        <ele>-3.06</ele>
        <time>2017-06-06T07:36:02Z</time>
      </trkpt>
      <trkpt lat="42.02333" lon="8.67514">
        <ele>-2.99</ele>
        <time>2017-06-06T07:36:15Z</time>
      </trkpt>
      <trkpt lat="42.02319" lon="8.67485">
        <ele>-2.99</ele>
        <time>2017-06-06T07:36:29Z</time>
      </trkpt>
      <trkpt lat="42.02314" lon="8.67476">
        <ele>-3.29</ele>
        <time>2017-06-06T07:36:36Z</time>
      </trkpt>
      <trkpt lat="42.02311" lon="8.67468">
        <ele>-3.34</ele>
        <time>2017-06-06T07:36:40Z</time>
      </trkpt>
      <trkpt lat="42.02301" lon="8.6744">
        <ele>-3.34</ele>
        <time>2017-06-06T07:36:53Z</time>
      </trkpt>
      <trkpt lat="42.02293" lon="8.67418">
        <ele>-3.59</ele>
        <time>2017-06-06T07:37:05Z</time>
      </trkpt>
      <trkpt lat="42.02286" lon="8.67391">
        <ele>-3.58</ele>
        <time>2017-06-06T07:37:18Z</time>
      </trkpt>
      <trkpt lat="42.02273" lon="8.6736">
        <ele>-3.55</ele>
        <time>2017-06-06T07:37:34Z</time>
      </trkpt>
      <trkpt lat="42.02264" lon="8.67335">
        <ele>-3.39</ele>
        <time>2017-06-06T07:37:46Z</time>
      </trkpt>
      <trkpt lat="42.02262" lon="8.67329">
        <ele>-3.44</ele>
        <time>2017-06-06T07:37:49Z</time>
      </trkpt>
      <trkpt lat="42.02242" lon="8.67308">
        <ele>-3.2</ele>
        <time>2017-06-06T07:38:04Z</time>
      </trkpt>
      <trkpt lat="42.02223" lon="8.67288">
        <ele>-2.97</ele>
        <time>2017-06-06T07:38:18Z</time>
      </trkpt>
      <trkpt lat="42.02201" lon="8.67266">
        <ele>-3.33</ele>
        <time>2017-06-06T07:38:32Z</time>
      </trkpt>
      <trkpt lat="42.02185" lon="8.67246">
        <ele>-3.39</ele>
        <time>2017-06-06T07:38:45Z</time>
      </trkpt>
      <trkpt lat="42.02171" lon="8.67231">
        <ele>-3.36</ele>
        <time>2017-06-06T07:38:57Z</time>
      </trkpt>
      <trkpt lat="42.02157" lon="8.67209">
        <ele>-3.48</ele>
        <time>2017-06-06T07:39:10Z</time>
      </trkpt>
      <trkpt lat="42.02147" lon="8.67195">
        <ele>-3.66</ele>
        <time>2017-06-06T07:39:18Z</time>
      </trkpt>
      <trkpt lat="42.02139" lon="8.67188">
        <ele>-3.57</ele>
        <time>2017-06-06T07:39:24Z</time>
      </trkpt>
      <trkpt lat="42.02128" lon="8.67177">
        <ele>-3.73</ele>
        <time>2017-06-06T07:39:32Z</time>
      </trkpt>
      <trkpt lat="42.02117" lon="8.67163">
        <ele>-3.72</ele>
        <time>2017-06-06T07:39:44Z</time>
      </trkpt>
      <trkpt lat="42.02106" lon="8.67153">
        <ele>-3.89</ele>
        <time>2017-06-06T07:40:01Z</time>
      </trkpt>
      <trkpt lat="42.02103" lon="8.67151">
        <ele>-3.88</ele>
        <time>2017-06-06T07:40:04Z</time>
      </trkpt>
      <trkpt lat="42.021" lon="8.67149">
        <ele>-3.8</ele>
        <time>2017-06-06T07:40:07Z</time>
      </trkpt>
      <trkpt lat="42.02094" lon="8.67146">
        <ele>-3.76</ele>
        <time>2017-06-06T07:40:11Z</time>
      </trkpt>
      <trkpt lat="42.02091" lon="8.67145">
        <ele>-3.76</ele>
        <time>2017-06-06T07:40:14Z</time>
      </trkpt>
      <trkpt lat="42.02086" lon="8.67142">
        <ele>-3.74</ele>
        <time>2017-06-06T07:40:19Z</time>
      </trkpt>
      <trkpt lat="42.02073" lon="8.67129">
        <ele>-3.92</ele>
        <time>2017-06-06T07:40:33Z</time>
      </trkpt>
      <trkpt lat="42.02061" lon="8.67106">
        <ele>-3.9</ele>
        <time>2017-06-06T07:40:48Z</time>
      </trkpt>
      <trkpt lat="42.02055" lon="8.67097">
        <ele>-3.74</ele>
        <time>2017-06-06T07:40:53Z</time>
      </trkpt>
      <trkpt lat="42.02052" lon="8.67091">
        <ele>-3.75</ele>
        <time>2017-06-06T07:40:56Z</time>
      </trkpt>
      <trkpt lat="42.02043" lon="8.67079">
        <ele>-3.76</ele>
        <time>2017-06-06T07:41:03Z</time>
      </trkpt>
      <trkpt lat="42.02031" lon="8.6705">
        <ele>-3.89</ele>
        <time>2017-06-06T07:41:18Z</time>
      </trkpt>
      <trkpt lat="42.02023" lon="8.67024">
        <ele>-3.75</ele>
        <time>2017-06-06T07:41:30Z</time>
      </trkpt>
      <trkpt lat="42.02011" lon="8.67005">
        <ele>-4.01</ele>
        <time>2017-06-06T07:41:43Z</time>
      </trkpt>
      <trkpt lat="42.02003" lon="8.66988">
        <ele>-3.92</ele>
        <time>2017-06-06T07:41:52Z</time>
      </trkpt>
      <trkpt lat="42.01999" lon="8.66956">
        <ele>-4.02</ele>
        <time>2017-06-06T07:42:05Z</time>
      </trkpt>
      <trkpt lat="42.01997" lon="8.66931">
        <ele>-4.19</ele>
        <time>2017-06-06T07:42:17Z</time>
      </trkpt>
      <trkpt lat="42.01991" lon="8.66904">
        <ele>-4.08</ele>
        <time>2017-06-06T07:42:29Z</time>
      </trkpt>
      <trkpt lat="42.01979" lon="8.66878">
        <ele>-4.17</ele>
        <time>2017-06-06T07:42:42Z</time>
      </trkpt>
      <trkpt lat="42.01973" lon="8.66867">
        <ele>-4.18</ele>
        <time>2017-06-06T07:42:48Z</time>
      </trkpt>
      <trkpt lat="42.0196" lon="8.66847">
        <ele>-4.12</ele>
        <time>2017-06-06T07:43:00Z</time>
      </trkpt>
      <trkpt lat="42.01959" lon="8.66845">
        <ele>-4.18</ele>
        <time>2017-06-06T07:43:01Z</time>
      </trkpt>
      <trkpt lat="42.01954" lon="8.66839">
        <ele>-4.27</ele>
        <time>2017-06-06T07:43:05Z</time>
      </trkpt>
      <trkpt lat="42.01945" lon="8.66813">
        <ele>-4.24</ele>
        <time>2017-06-06T07:43:18Z</time>
      </trkpt>
      <trkpt lat="42.01935" lon="8.66784">
        <ele>-4.26</ele>
        <time>2017-06-06T07:43:30Z</time>
      </trkpt>
      <trkpt lat="42.01922" lon="8.66754">
        <ele>-3.9</ele>
        <time>2017-06-06T07:43:44Z</time>
      </trkpt>
      <trkpt lat="42.01917" lon="8.66736">
        <ele>-3.92</ele>
        <time>2017-06-06T07:43:52Z</time>
      </trkpt>
      <trkpt lat="42.01902" lon="8.66711">
        <ele>-3.91</ele>
        <time>2017-06-06T07:44:04Z</time>
      </trkpt>
      <trkpt lat="42.01891" lon="8.66689">
        <ele>-3.86</ele>
        <time>2017-06-06T07:44:15Z</time>
      </trkpt>
      <trkpt lat="42.01875" lon="8.6666">
        <ele>-3.93</ele>
        <time>2017-06-06T07:44:29Z</time>
      </trkpt>
      <trkpt lat="42.01859" lon="8.66632">
        <ele>-3.73</ele>
        <time>2017-06-06T07:44:42Z</time>
      </trkpt>
      <trkpt lat="42.01843" lon="8.66606">
        <ele>-3.72</ele>
        <time>2017-06-06T07:44:54Z</time>
      </trkpt>
      <trkpt lat="42.01826" lon="8.66577">
        <ele>-3.49</ele>
        <time>2017-06-06T07:45:07Z</time>
      </trkpt>
      <trkpt lat="42.01808" lon="8.66546">
        <ele>-3.62</ele>
        <time>2017-06-06T07:45:22Z</time>
      </trkpt>
      <trkpt lat="42.01792" lon="8.66518">
        <ele>-3.67</ele>
        <time>2017-06-06T07:45:35Z</time>
      </trkpt>
      <trkpt lat="42.01781" lon="8.66499">
        <ele>-3.79</ele>
        <time>2017-06-06T07:45:45Z</time>
      </trkpt>
      <trkpt lat="42.01765" lon="8.66476">
        <ele>-3.75</ele>
        <time>2017-06-06T07:45:57Z</time>
      </trkpt>
      <trkpt lat="42.01743" lon="8.66458">
        <ele>-3.44</ele>
        <time>2017-06-06T07:46:10Z</time>
      </trkpt>
      <trkpt lat="42.01723" lon="8.66444">
        <ele>-3.62</ele>
        <time>2017-06-06T07:46:21Z</time>
      </trkpt>
      <trkpt lat="42.017" lon="8.66425">
        <ele>-3.34</ele>
        <time>2017-06-06T07:46:34Z</time>
      </trkpt>
      <trkpt lat="42.01683" lon="8.66404">
        <ele>-3.61</ele>
        <time>2017-06-06T07:46:46Z</time>
      </trkpt>
      <trkpt lat="42.01675" lon="8.66396">
        <ele>-3.57</ele>
        <time>2017-06-06T07:46:51Z</time>
      </trkpt>
      <trkpt lat="42.01661" lon="8.66378">
        <ele>-3.87</ele>
        <time>2017-06-06T07:47:02Z</time>
      </trkpt>
      <trkpt lat="42.01653" lon="8.66365">
        <ele>-3.76</ele>
        <time>2017-06-06T07:47:11Z</time>
      </trkpt>
      <trkpt lat="42.01641" lon="8.66341">
        <ele>-3.94</ele>
        <time>2017-06-06T07:47:24Z</time>
      </trkpt>
      <trkpt lat="42.01633" lon="8.6632">
        <ele>-3.77</ele>
        <time>2017-06-06T07:47:34Z</time>
      </trkpt>
      <trkpt lat="42.0162" lon="8.66294">
        <ele>-3.68</ele>
        <time>2017-06-06T07:47:46Z</time>
      </trkpt>
      <trkpt lat="42.01603" lon="8.66269">
        <ele>-3.76</ele>
        <time>2017-06-06T07:48:00Z</time>
      </trkpt>
      <trkpt lat="42.01589" lon="8.66243">
        <ele>-3.98</ele>
        <time>2017-06-06T07:48:13Z</time>
      </trkpt>
      <trkpt lat="42.01575" lon="8.66214">
        <ele>-3.66</ele>
        <time>2017-06-06T07:48:26Z</time>
      </trkpt>
      <trkpt lat="42.01565" lon="8.66193">
        <ele>-3.91</ele>
        <time>2017-06-06T07:48:37Z</time>
      </trkpt>
      <trkpt lat="42.01554" lon="8.66165">
        <ele>-4.07</ele>
        <time>2017-06-06T07:48:51Z</time>
      </trkpt>
      <trkpt lat="42.01549" lon="8.66137">
        <ele>-4.34</ele>
        <time>2017-06-06T07:49:05Z</time>
      </trkpt>
      <trkpt lat="42.01547" lon="8.66124">
        <ele>-4.22</ele>
        <time>2017-06-06T07:49:11Z</time>
      </trkpt>
      <trkpt lat="42.01546" lon="8.6611">
        <ele>-4.38</ele>
        <time>2017-06-06T07:49:18Z</time>
      </trkpt>
      <trkpt lat="42.01545" lon="8.66099">
        <ele>-4.35</ele>
        <time>2017-06-06T07:49:24Z</time>
      </trkpt>
      <trkpt lat="42.0154" lon="8.6607">
        <ele>-4.18</ele>
        <time>2017-06-06T07:49:37Z</time>
      </trkpt>
      <trkpt lat="42.01532" lon="8.66042">
        <ele>-4.03</ele>
        <time>2017-06-06T07:49:50Z</time>
      </trkpt>
      <trkpt lat="42.01522" lon="8.6601">
        <ele>-3.97</ele>
        <time>2017-06-06T07:50:04Z</time>
      </trkpt>
      <trkpt lat="42.01512" lon="8.65989">
        <ele>-3.9</ele>
        <time>2017-06-06T07:50:15Z</time>
      </trkpt>
      <trkpt lat="42.01502" lon="8.65966">
        <ele>-3.97</ele>
        <time>2017-06-06T07:50:27Z</time>
      </trkpt>
      <trkpt lat="42.015" lon="8.65962">
        <ele>-3.91</ele>
        <time>2017-06-06T07:50:29Z</time>
      </trkpt>
      <trkpt lat="42.01484" lon="8.65943">
        <ele>-3.6</ele>
        <time>2017-06-06T07:50:42Z</time>
      </trkpt>
      <trkpt lat="42.01483" lon="8.65942">
        <ele>-3.62</ele>
        <time>2017-06-06T07:50:43Z</time>
      </trkpt>
      <trkpt lat="42.01477" lon="8.65938">
        <ele>-3.76</ele>
        <time>2017-06-06T07:50:47Z</time>
      </trkpt>
      <trkpt lat="42.01457" lon="8.65916">
        <ele>-3.62</ele>
        <time>2017-06-06T07:51:02Z</time>
      </trkpt>
      <trkpt lat="42.01439" lon="8.65895">
        <ele>-3.92</ele>
        <time>2017-06-06T07:51:17Z</time>
      </trkpt>
      <trkpt lat="42.01431" lon="8.65882">
        <ele>-3.76</ele>
        <time>2017-06-06T07:51:33Z</time>
      </trkpt>
      <trkpt lat="42.01425" lon="8.65871">
        <ele>-3.9</ele>
        <time>2017-06-06T07:51:41Z</time>
      </trkpt>
      <trkpt lat="42.01413" lon="8.65856">
        <ele>-3.94</ele>
        <time>2017-06-06T07:51:54Z</time>
      </trkpt>
      <trkpt lat="42.01408" lon="8.65847">
        <ele>-3.97</ele>
        <time>2017-06-06T07:52:01Z</time>
      </trkpt>
      <trkpt lat="42.01405" lon="8.65833">
        <ele>-3.82</ele>
        <time>2017-06-06T07:52:15Z</time>
      </trkpt>
      <trkpt lat="42.01409" lon="8.65812">
        <ele>-4.33</ele>
        <time>2017-06-06T07:52:34Z</time>
      </trkpt>
      <trkpt lat="42.0141" lon="8.65811">
        <ele>-4.34</ele>
        <time>2017-06-06T07:52:35Z</time>
      </trkpt>
      <trkpt lat="42.01414" lon="8.65808">
        <ele>-4.26</ele>
        <time>2017-06-06T07:52:39Z</time>
      </trkpt>
      <trkpt lat="42.01419" lon="8.65807">
        <ele>-4.26</ele>
        <time>2017-06-06T07:52:44Z</time>
      </trkpt>
      <trkpt lat="42.01426" lon="8.65807">
        <ele>-3.99</ele>
        <time>2017-06-06T07:52:49Z</time>
      </trkpt>
      <trkpt lat="42.0145" lon="8.65822">
        <ele>-3.72</ele>
        <time>2017-06-06T07:53:05Z</time>
      </trkpt>
      <trkpt lat="42.01467" lon="8.65849">
        <ele>-3.86</ele>
        <time>2017-06-06T07:53:18Z</time>
      </trkpt>
      <trkpt lat="42.01483" lon="8.65882">
        <ele>-3.95</ele>
        <time>2017-06-06T07:53:31Z</time>
      </trkpt>
      <trkpt lat="42.01497" lon="8.65911">
        <ele>-3.64</ele>
        <time>2017-06-06T07:53:43Z</time>
      </trkpt>
      <trkpt lat="42.01517" lon="8.65937">
        <ele>-3.9</ele>
        <time>2017-06-06T07:53:56Z</time>
      </trkpt>
      <trkpt lat="42.01537" lon="8.65963">
        <ele>-3.76</ele>
        <time>2017-06-06T07:54:08Z</time>
      </trkpt>
      <trkpt lat="42.01563" lon="8.65989">
        <ele>-4.05</ele>
        <time>2017-06-06T07:54:22Z</time>
      </trkpt>
      <trkpt lat="42.01586" lon="8.66018">
        <ele>-3.75</ele>
        <time>2017-06-06T07:54:35Z</time>
      </trkpt>
      <trkpt lat="42.01609" lon="8.66055">
        <ele>-3.62</ele>
        <time>2017-06-06T07:54:50Z</time>
      </trkpt>
      <trkpt lat="42.01629" lon="8.66078">
        <ele>-3.3</ele>
        <time>2017-06-06T07:55:02Z</time>
      </trkpt>
      <trkpt lat="42.01652" lon="8.66113">
        <ele>-3.37</ele>
        <time>2017-06-06T07:55:16Z</time>
      </trkpt>
      <trkpt lat="42.01667" lon="8.66149">
        <ele>-3.45</ele>
        <time>2017-06-06T07:55:29Z</time>
      </trkpt>
      <trkpt lat="42.01675" lon="8.66173">
        <ele>-3.58</ele>
        <time>2017-06-06T07:55:38Z</time>
      </trkpt>
      <trkpt lat="42.01689" lon="8.66206">
        <ele>-3.24</ele>
        <time>2017-06-06T07:55:50Z</time>
      </trkpt>
      <trkpt lat="42.01708" lon="8.66248">
        <ele>-3.56</ele>
        <time>2017-06-06T07:56:06Z</time>
      </trkpt>
      <trkpt lat="42.01721" lon="8.66283">
        <ele>-3.29</ele>
        <time>2017-06-06T07:56:18Z</time>
      </trkpt>
      <trkpt lat="42.01728" lon="8.66313">
        <ele>-3.19</ele>
        <time>2017-06-06T07:56:29Z</time>
      </trkpt>
      <trkpt lat="42.01734" lon="8.66345">
        <ele>-3.03</ele>
        <time>2017-06-06T07:56:41Z</time>
      </trkpt>
      <trkpt lat="42.01752" lon="8.66381">
        <ele>-3.34</ele>
        <time>2017-06-06T07:56:55Z</time>
      </trkpt>
      <trkpt lat="42.01766" lon="8.66405">
        <ele>-3.21</ele>
        <time>2017-06-06T07:57:06Z</time>
      </trkpt>
      <trkpt lat="42.0178" lon="8.66433">
        <ele>-3.17</ele>
        <time>2017-06-06T07:57:18Z</time>
      </trkpt>
      <trkpt lat="42.01796" lon="8.66461">
        <ele>-3.22</ele>
        <time>2017-06-06T07:57:30Z</time>
      </trkpt>
      <trkpt lat="42.01814" lon="8.66485">
        <ele>-3.24</ele>
        <time>2017-06-06T07:57:41Z</time>
      </trkpt>
      <trkpt lat="42.01831" lon="8.6651">
        <ele>-3.08</ele>
        <time>2017-06-06T07:57:52Z</time>
      </trkpt>
      <trkpt lat="42.01853" lon="8.66541">
        <ele>-3.07</ele>
        <time>2017-06-06T07:58:06Z</time>
      </trkpt>
      <trkpt lat="42.0187" lon="8.66576">
        <ele>-3.06</ele>
        <time>2017-06-06T07:58:19Z</time>
      </trkpt>
      <trkpt lat="42.01883" lon="8.66608">
        <ele>-3.1</ele>
        <time>2017-06-06T07:58:31Z</time>
      </trkpt>
      <trkpt lat="42.0189" lon="8.66639">
        <ele>-3.18</ele>
        <time>2017-06-06T07:58:42Z</time>
      </trkpt>
      <trkpt lat="42.01897" lon="8.66668">
        <ele>-2.84</ele>
        <time>2017-06-06T07:58:53Z</time>
      </trkpt>
      <trkpt lat="42.01904" lon="8.66704">
        <ele>-3.16</ele>
        <time>2017-06-06T07:59:05Z</time>
      </trkpt>
      <trkpt lat="42.01916" lon="8.66737">
        <ele>-3.23</ele>
        <time>2017-06-06T07:59:17Z</time>
      </trkpt>
      <trkpt lat="42.0193" lon="8.66768">
        <ele>-3.01</ele>
        <time>2017-06-06T07:59:29Z</time>
      </trkpt>
      <trkpt lat="42.01953" lon="8.66792">
        <ele>-3.18</ele>
        <time>2017-06-06T07:59:42Z</time>
      </trkpt>
      <trkpt lat="42.01972" lon="8.66824">
        <ele>-3.02</ele>
        <time>2017-06-06T07:59:55Z</time>
      </trkpt>
      <trkpt lat="42.01985" lon="8.66856">
        <ele>-3.05</ele>
        <time>2017-06-06T08:00:08Z</time>
      </trkpt>
      <trkpt lat="42.01998" lon="8.66887">
        <ele>-2.96</ele>
        <time>2017-06-06T08:00:19Z</time>
      </trkpt>
      <trkpt lat="42.02008" lon="8.66917">
        <ele>-3.01</ele>
        <time>2017-06-06T08:00:30Z</time>
      </trkpt>
      <trkpt lat="42.02018" lon="8.66952">
        <ele>-3.18</ele>
        <time>2017-06-06T08:00:43Z</time>
      </trkpt>
      <trkpt lat="42.02028" lon="8.66982">
        <ele>-2.99</ele>
        <time>2017-06-06T08:00:55Z</time>
      </trkpt>
      <trkpt lat="42.02037" lon="8.67017">
        <ele>-3.06</ele>
        <time>2017-06-06T08:01:07Z</time>
      </trkpt>
      <trkpt lat="42.02045" lon="8.67048">
        <ele>-2.93</ele>
        <time>2017-06-06T08:01:18Z</time>
      </trkpt>
      <trkpt lat="42.02059" lon="8.67087">
        <ele>-2.93</ele>
        <time>2017-06-06T08:01:31Z</time>
      </trkpt>
      <trkpt lat="42.0207" lon="8.67121">
        <ele>-3.06</ele>
        <time>2017-06-06T08:01:41Z</time>
      </trkpt>
      <trkpt lat="42.02081" lon="8.67166">
        <ele>-2.82</ele>
        <time>2017-06-06T08:01:55Z</time>
      </trkpt>
      <trkpt lat="42.02089" lon="8.67202">
        <ele>-2.76</ele>
        <time>2017-06-06T08:02:07Z</time>
      </trkpt>
      <trkpt lat="42.02096" lon="8.67222">
        <ele>-2.85</ele>
        <time>2017-06-06T08:02:14Z</time>
      </trkpt>
      <trkpt lat="42.02098" lon="8.67237">
        <ele>-2.78</ele>
        <time>2017-06-06T08:02:19Z</time>
      </trkpt>
      <trkpt lat="42.02111" lon="8.67276">
        <ele>-2.71</ele>
        <time>2017-06-06T08:02:33Z</time>
      </trkpt>
      <trkpt lat="42.02118" lon="8.67312">
        <ele>-2.83</ele>
        <time>2017-06-06T08:02:46Z</time>
      </trkpt>
      <trkpt lat="42.02128" lon="8.67346">
        <ele>-2.92</ele>
        <time>2017-06-06T08:02:57Z</time>
      </trkpt>
      <trkpt lat="42.02136" lon="8.67377">
        <ele>-2.66</ele>
        <time>2017-06-06T08:03:08Z</time>
      </trkpt>
      <trkpt lat="42.02145" lon="8.67412">
        <ele>-2.68</ele>
        <time>2017-06-06T08:03:21Z</time>
      </trkpt>
      <trkpt lat="42.02153" lon="8.67447">
        <ele>-2.88</ele>
        <time>2017-06-06T08:03:32Z</time>
      </trkpt>
      <trkpt lat="42.02158" lon="8.67473">
        <ele>-3.06</ele>
        <time>2017-06-06T08:03:41Z</time>
      </trkpt>
      <trkpt lat="42.02164" lon="8.67482">
        <ele>-3.1</ele>
        <time>2017-06-06T08:03:45Z</time>
      </trkpt>
      <trkpt lat="42.02181" lon="8.67515">
        <ele>-2.97</ele>
        <time>2017-06-06T08:03:59Z</time>
      </trkpt>
      <trkpt lat="42.02194" lon="8.67548">
        <ele>-2.85</ele>
        <time>2017-06-06T08:04:12Z</time>
      </trkpt>
      <trkpt lat="42.02206" lon="8.67591">
        <ele>-3.06</ele>
        <time>2017-06-06T08:04:27Z</time>
      </trkpt>
      <trkpt lat="42.02217" lon="8.67626">
        <ele>-2.81</ele>
        <time>2017-06-06T08:04:40Z</time>
      </trkpt>
      <trkpt lat="42.02226" lon="8.6766">
        <ele>-2.78</ele>
        <time>2017-06-06T08:04:52Z</time>
      </trkpt>
      <trkpt lat="42.02235" lon="8.6769">
        <ele>-2.89</ele>
        <time>2017-06-06T08:05:03Z</time>
      </trkpt>
      <trkpt lat="42.02248" lon="8.67721">
        <ele>-2.74</ele>
        <time>2017-06-06T08:05:15Z</time>
      </trkpt>
      <trkpt lat="42.02262" lon="8.67754">
        <ele>-2.84</ele>
        <time>2017-06-06T08:05:29Z</time>
      </trkpt>
      <trkpt lat="42.02282" lon="8.67789">
        <ele>-2.87</ele>
        <time>2017-06-06T08:05:45Z</time>
      </trkpt>
      <trkpt lat="42.02297" lon="8.67813">
        <ele>-2.74</ele>
        <time>2017-06-06T08:05:56Z</time>
      </trkpt>
      <trkpt lat="42.0231" lon="8.67842">
        <ele>-2.83</ele>
        <time>2017-06-06T08:06:08Z</time>
      </trkpt>
      <trkpt lat="42.02327" lon="8.6788">
        <ele>-2.81</ele>
        <time>2017-06-06T08:06:22Z</time>
      </trkpt>
      <trkpt lat="42.02339" lon="8.6791">
        <ele>-2.78</ele>
        <time>2017-06-06T08:06:33Z</time>
      </trkpt>
      <trkpt lat="42.02351" lon="8.67932">
        <ele>-2.9</ele>
        <time>2017-06-06T08:06:42Z</time>
      </trkpt>
      <trkpt lat="42.02368" lon="8.67964">
        <ele>-3.14</ele>
        <time>2017-06-06T08:06:54Z</time>
      </trkpt>
      <trkpt lat="42.0238" lon="8.67991">
        <ele>-2.97</ele>
        <time>2017-06-06T08:07:04Z</time>
      </trkpt>
      <trkpt lat="42.02402" lon="8.68022">
        <ele>-2.98</ele>
        <time>2017-06-06T08:07:17Z</time>
      </trkpt>
      <trkpt lat="42.02424" lon="8.68051">
        <ele>-2.93</ele>
        <time>2017-06-06T08:07:30Z</time>
      </trkpt>
      <trkpt lat="42.02443" lon="8.68077">
        <ele>-2.99</ele>
        <time>2017-06-06T08:07:42Z</time>
      </trkpt>
      <trkpt lat="42.02462" lon="8.68107">
        <ele>-2.69</ele>
        <time>2017-06-06T08:07:55Z</time>
      </trkpt>
      <trkpt lat="42.02479" lon="8.68138">
        <ele>-2.78</ele>
        <time>2017-06-06T08:08:07Z</time>
      </trkpt>
      <trkpt lat="42.02493" lon="8.68166">
        <ele>-2.71</ele>
        <time>2017-06-06T08:08:18Z</time>
      </trkpt>
      <trkpt lat="42.0251" lon="8.68199">
        <ele>-2.88</ele>
        <time>2017-06-06T08:08:31Z</time>
      </trkpt>
      <trkpt lat="42.02526" lon="8.68222">
        <ele>-2.72</ele>
        <time>2017-06-06T08:08:42Z</time>
      </trkpt>
      <trkpt lat="42.02542" lon="8.68249">
        <ele>-2.92</ele>
        <time>2017-06-06T08:08:54Z</time>
      </trkpt>
      <trkpt lat="42.02564" lon="8.68269">
        <ele>-2.74</ele>
        <time>2017-06-06T08:09:06Z</time>
      </trkpt>
      <trkpt lat="42.02586" lon="8.68296">
        <ele>-2.41</ele>
        <time>2017-06-06T08:09:19Z</time>
      </trkpt>
      <trkpt lat="42.02604" lon="8.68327">
        <ele>-2.54</ele>
        <time>2017-06-06T08:09:32Z</time>
      </trkpt>
      <trkpt lat="42.02619" lon="8.68361">
        <ele>-2.38</ele>
        <time>2017-06-06T08:09:45Z</time>
      </trkpt>
      <trkpt lat="42.02635" lon="8.68389">
        <ele>-2.71</ele>
        <time>2017-06-06T08:09:57Z</time>
      </trkpt>
      <trkpt lat="42.02654" lon="8.68417">
        <ele>-2.54</ele>
        <time>2017-06-06T08:10:10Z</time>
      </trkpt>
      <trkpt lat="42.02673" lon="8.6844">
        <ele>-2.23</ele>
        <time>2017-06-06T08:10:21Z</time>
      </trkpt>
      <trkpt lat="42.02689" lon="8.68465">
        <ele>-2.26</ele>
        <time>2017-06-06T08:10:32Z</time>
      </trkpt>
      <trkpt lat="42.02702" lon="8.68492">
        <ele>-2.22</ele>
        <time>2017-06-06T08:10:43Z</time>
      </trkpt>
      <trkpt lat="42.02717" lon="8.68523">
        <ele>-2.05</ele>
        <time>2017-06-06T08:10:55Z</time>
      </trkpt>
      <trkpt lat="42.02732" lon="8.68555">
        <ele>-2.23</ele>
        <time>2017-06-06T08:11:07Z</time>
      </trkpt>
      <trkpt lat="42.0275" lon="8.68591">
        <ele>-2.19</ele>
        <time>2017-06-06T08:11:21Z</time>
      </trkpt>
      <trkpt lat="42.0276" lon="8.68614">
        <ele>-2.01</ele>
        <time>2017-06-06T08:11:31Z</time>
      </trkpt>
      <trkpt lat="42.02773" lon="8.68629">
        <ele>-2.15</ele>
        <time>2017-06-06T08:11:39Z</time>
      </trkpt>
      <trkpt lat="42.02795" lon="8.68659">
        <ele>-1.84</ele>
        <time>2017-06-06T08:11:53Z</time>
      </trkpt>
      <trkpt lat="42.02809" lon="8.68692">
        <ele>-1.83</ele>
        <time>2017-06-06T08:12:05Z</time>
      </trkpt>
      <trkpt lat="42.02817" lon="8.68729">
        <ele>-1.85</ele>
        <time>2017-06-06T08:12:17Z</time>
      </trkpt>
      <trkpt lat="42.02821" lon="8.68762">
        <ele>-1.87</ele>
        <time>2017-06-06T08:12:28Z</time>
      </trkpt>
      <trkpt lat="42.02829" lon="8.68799">
        <ele>-1.81</ele>
        <time>2017-06-06T08:12:39Z</time>
      </trkpt>
      <trkpt lat="42.02833" lon="8.68837">
        <ele>-1.95</ele>
        <time>2017-06-06T08:12:51Z</time>
      </trkpt>
      <trkpt lat="42.02841" lon="8.68879">
        <ele>-1.93</ele>
        <time>2017-06-06T08:13:04Z</time>
      </trkpt>
      <trkpt lat="42.02847" lon="8.68918">
        <ele>-2.06</ele>
        <time>2017-06-06T08:13:17Z</time>
      </trkpt>
      <trkpt lat="42.02857" lon="8.68954">
        <ele>-1.86</ele>
        <time>2017-06-06T08:13:29Z</time>
      </trkpt>
      <trkpt lat="42.02872" lon="8.6899">
        <ele>-1.91</ele>
        <time>2017-06-06T08:13:42Z</time>
      </trkpt>
      <trkpt lat="42.02884" lon="8.69022">
        <ele>-1.9</ele>
        <time>2017-06-06T08:13:54Z</time>
      </trkpt>
      <trkpt lat="42.02894" lon="8.69051">
        <ele>-1.77</ele>
        <time>2017-06-06T08:14:05Z</time>
      </trkpt>
      <trkpt lat="42.029" lon="8.69093">
        <ele>-1.91</ele>
        <time>2017-06-06T08:14:19Z</time>
      </trkpt>
      <trkpt lat="42.02906" lon="8.69127">
        <ele>-2.05</ele>
        <time>2017-06-06T08:14:30Z</time>
      </trkpt>
      <trkpt lat="42.02909" lon="8.69166">
        <ele>-2.09</ele>
        <time>2017-06-06T08:14:42Z</time>
      </trkpt>
      <trkpt lat="42.02898" lon="8.69199">
        <ele>-1.7</ele>
        <time>2017-06-06T08:14:53Z</time>
      </trkpt>
      <trkpt lat="42.02882" lon="8.69235">
        <ele>-1.85</ele>
        <time>2017-06-06T08:15:05Z</time>
      </trkpt>
      <trkpt lat="42.02872" lon="8.69268">
        <ele>-2.34</ele>
        <time>2017-06-06T08:15:21Z</time>
      </trkpt>
      <trkpt lat="42.02872" lon="8.69276">
        <ele>-0.54</ele>
        <time>2017-06-06T08:15:38Z</time>
      </trkpt>
      <trkpt lat="42.02874" lon="8.69288">
        <ele>-2.47</ele>
        <time>2017-06-06T08:16:07Z</time>
      </trkpt>
      <trkpt lat="42.02871" lon="8.69302">
        <ele>-0.98</ele>
        <time>2017-06-06T08:16:32Z</time>
      </trkpt>
      <trkpt lat="42.0287" lon="8.69313">
        <ele>-1.21</ele>
        <time>2017-06-06T08:16:42Z</time>
      </trkpt>
      <trkpt lat="42.02868" lon="8.69347">
        <ele>-1.53</ele>
        <time>2017-06-06T08:16:58Z</time>
      </trkpt>
      <trkpt lat="42.02866" lon="8.69386">
        <ele>-1.58</ele>
        <time>2017-06-06T08:17:13Z</time>
      </trkpt>
      <trkpt lat="42.02877" lon="8.69433">
        <ele>-1.47</ele>
        <time>2017-06-06T08:17:30Z</time>
      </trkpt>
      <trkpt lat="42.02891" lon="8.69465">
        <ele>-1.59</ele>
        <time>2017-06-06T08:17:43Z</time>
      </trkpt>
      <trkpt lat="42.02906" lon="8.695">
        <ele>-1.53</ele>
        <time>2017-06-06T08:17:57Z</time>
      </trkpt>
      <trkpt lat="42.02919" lon="8.69526">
        <ele>-1.49</ele>
        <time>2017-06-06T08:18:09Z</time>
      </trkpt>
      <trkpt lat="42.02927" lon="8.69552">
        <ele>-1.5</ele>
        <time>2017-06-06T08:18:20Z</time>
      </trkpt>
      <trkpt lat="42.02938" lon="8.69583">
        <ele>-1.5</ele>
        <time>2017-06-06T08:18:32Z</time>
      </trkpt>
      <trkpt lat="42.02951" lon="8.69618">
        <ele>-1.16</ele>
        <time>2017-06-06T08:18:46Z</time>
      </trkpt>
      <trkpt lat="42.02962" lon="8.69659">
        <ele>-1.25</ele>
        <time>2017-06-06T08:19:01Z</time>
      </trkpt>
      <trkpt lat="42.02972" lon="8.69687">
        <ele>-1.05</ele>
        <time>2017-06-06T08:19:12Z</time>
      </trkpt>
      <trkpt lat="42.0298" lon="8.69706">
        <ele>-1.14</ele>
        <time>2017-06-06T08:19:19Z</time>
      </trkpt>
      <trkpt lat="42.02993" lon="8.69745">
        <ele>-1.19</ele>
        <time>2017-06-06T08:19:33Z</time>
      </trkpt>
      <trkpt lat="42.03011" lon="8.6978">
        <ele>-1.39</ele>
        <time>2017-06-06T08:19:48Z</time>
      </trkpt>
      <trkpt lat="42.03023" lon="8.69809">
        <ele>-1.36</ele>
        <time>2017-06-06T08:20:00Z</time>
      </trkpt>
      <trkpt lat="42.0304" lon="8.69838">
        <ele>-1.19</ele>
        <time>2017-06-06T08:20:13Z</time>
      </trkpt>
      <trkpt lat="42.03059" lon="8.69874">
        <ele>-1.18</ele>
        <time>2017-06-06T08:20:27Z</time>
      </trkpt>
      <trkpt lat="42.03064" lon="8.69881">
        <ele>-1.15</ele>
        <time>2017-06-06T08:20:30Z</time>
      </trkpt>
      <trkpt lat="42.0308" lon="8.69914">
        <ele>-1.26</ele>
        <time>2017-06-06T08:20:43Z</time>
      </trkpt>
      <trkpt lat="42.031" lon="8.69942">
        <ele>-1.13</ele>
        <time>2017-06-06T08:20:57Z</time>
      </trkpt>
      <trkpt lat="42.03114" lon="8.6996">
        <ele>-1.03</ele>
        <time>2017-06-06T08:21:07Z</time>
      </trkpt>
      <trkpt lat="42.03132" lon="8.69978">
        <ele>-0.7</ele>
        <time>2017-06-06T08:21:18Z</time>
      </trkpt>
      <trkpt lat="42.03152" lon="8.70003">
        <ele>-0.9</ele>
        <time>2017-06-06T08:21:31Z</time>
      </trkpt>
      <trkpt lat="42.03166" lon="8.7003">
        <ele>-1.03</ele>
        <time>2017-06-06T08:21:42Z</time>
      </trkpt>
      <trkpt lat="42.03173" lon="8.70071">
        <ele>-0.97</ele>
        <time>2017-06-06T08:21:56Z</time>
      </trkpt>
      <trkpt lat="42.03172" lon="8.70113">
        <ele>-0.76</ele>
        <time>2017-06-06T08:22:10Z</time>
      </trkpt>
      <trkpt lat="42.03179" lon="8.70151">
        <ele>-0.79</ele>
        <time>2017-06-06T08:22:24Z</time>
      </trkpt>
      <trkpt lat="42.03188" lon="8.70182">
        <ele>-0.53</ele>
        <time>2017-06-06T08:22:36Z</time>
      </trkpt>
      <trkpt lat="42.03195" lon="8.70217">
        <ele>-0.45</ele>
        <time>2017-06-06T08:22:49Z</time>
      </trkpt>
      <trkpt lat="42.03204" lon="8.70249">
        <ele>-0.55</ele>
        <time>2017-06-06T08:23:01Z</time>
      </trkpt>
      <trkpt lat="42.03213" lon="8.70286">
        <ele>-0.73</ele>
        <time>2017-06-06T08:23:14Z</time>
      </trkpt>
      <trkpt lat="42.03224" lon="8.70318">
        <ele>-0.71</ele>
        <time>2017-06-06T08:23:26Z</time>
      </trkpt>
      <trkpt lat="42.03236" lon="8.70353">
        <ele>-0.38</ele>
        <time>2017-06-06T08:23:39Z</time>
      </trkpt>
      <trkpt lat="42.03241" lon="8.70388">
        <ele>-0.29</ele>
        <time>2017-06-06T08:23:51Z</time>
      </trkpt>
      <trkpt lat="42.03245" lon="8.70419">
        <ele>-0.61</ele>
        <time>2017-06-06T08:24:02Z</time>
      </trkpt>
      <trkpt lat="42.03253" lon="8.70458">
        <ele>-0.49</ele>
        <time>2017-06-06T08:24:16Z</time>
      </trkpt>
      <trkpt lat="42.03261" lon="8.70507">
        <ele>-0.49</ele>
        <time>2017-06-06T08:24:31Z</time>
      </trkpt>
      <trkpt lat="42.03266" lon="8.70541">
        <ele>-0.4</ele>
        <time>2017-06-06T08:24:42Z</time>
      </trkpt>
      <trkpt lat="42.03273" lon="8.70583">
        <ele>-0.46</ele>
        <time>2017-06-06T08:24:56Z</time>
      </trkpt>
      <trkpt lat="42.03281" lon="8.70617">
        <ele>-0.51</ele>
        <time>2017-06-06T08:25:10Z</time>
      </trkpt>
      <trkpt lat="42.0329" lon="8.70647">
        <ele>-0.42</ele>
        <time>2017-06-06T08:25:22Z</time>
      </trkpt>
      <trkpt lat="42.033" lon="8.70677">
        <ele>-0.54</ele>
        <time>2017-06-06T08:25:33Z</time>
      </trkpt>
      <trkpt lat="42.03308" lon="8.70706">
        <ele>-0.51</ele>
        <time>2017-06-06T08:25:44Z</time>
      </trkpt>
      <trkpt lat="42.0332" lon="8.70736">
        <ele>-0.23</ele>
        <time>2017-06-06T08:25:56Z</time>
      </trkpt>
      <trkpt lat="42.0333" lon="8.70767">
        <ele>-0.48</ele>
        <time>2017-06-06T08:26:07Z</time>
      </trkpt>
      <trkpt lat="42.03343" lon="8.70808">
        <ele>-0.29</ele>
        <time>2017-06-06T08:26:22Z</time>
      </trkpt>
      <trkpt lat="42.03351" lon="8.70841">
        <ele>-0.05</ele>
        <time>2017-06-06T08:26:33Z</time>
      </trkpt>
      <trkpt lat="42.03362" lon="8.70874">
        <ele>0.23</ele>
        <time>2017-06-06T08:26:47Z</time>
      </trkpt>
      <trkpt lat="42.03374" lon="8.70906">
        <ele>0.02</ele>
        <time>2017-06-06T08:27:00Z</time>
      </trkpt>
      <trkpt lat="42.03386" lon="8.70934">
        <ele>0.17</ele>
        <time>2017-06-06T08:27:12Z</time>
      </trkpt>
      <trkpt lat="42.03401" lon="8.70962">
        <ele>0.22</ele>
        <time>2017-06-06T08:27:24Z</time>
      </trkpt>
      <trkpt lat="42.03415" lon="8.70989">
        <ele>0.14</ele>
        <time>2017-06-06T08:27:37Z</time>
      </trkpt>
      <trkpt lat="42.03432" lon="8.7102">
        <ele>-0.12</ele>
        <time>2017-06-06T08:27:50Z</time>
      </trkpt>
      <trkpt lat="42.03443" lon="8.71058">
        <ele>0.06</ele>
        <time>2017-06-06T08:28:03Z</time>
      </trkpt>
      <trkpt lat="42.03447" lon="8.71086">
        <ele>0.32</ele>
        <time>2017-06-06T08:28:15Z</time>
      </trkpt>
      <trkpt lat="42.03462" lon="8.71121">
        <ele>0.31</ele>
        <time>2017-06-06T08:28:29Z</time>
      </trkpt>
      <trkpt lat="42.03474" lon="8.71158">
        <time>2017-06-06T08:28:43Z</time>
      </trkpt>
      <trkpt lat="42.03488" lon="8.71195">
        <ele>-0.01</ele>
        <time>2017-06-06T08:28:55Z</time>
      </trkpt>
      <trkpt lat="42.03495" lon="8.71228">
        <time>2017-06-06T08:29:07Z</time>
      </trkpt>
      <trkpt lat="42.03506" lon="8.71258">
        <time>2017-06-06T08:29:18Z</time>
      </trkpt>
      <trkpt lat="42.03522" lon="8.71289">
        <ele>-0.04</ele>
        <time>2017-06-06T08:29:31Z</time>
      </trkpt>
      <trkpt lat="42.03538" lon="8.71319">
        <ele>-0.09</ele>
        <time>2017-06-06T08:29:46Z</time>
      </trkpt>
      <trkpt lat="42.03554" lon="8.71339">
        <ele>-0.22</ele>
        <time>2017-06-06T08:29:58Z</time>
      </trkpt>
      <trkpt lat="42.03577" lon="8.71359">
        <ele>-0.23</ele>
        <time>2017-06-06T08:30:11Z</time>
      </trkpt>
      <trkpt lat="42.03593" lon="8.71389">
        <ele>-0.28</ele>
        <time>2017-06-06T08:30:23Z</time>
      </trkpt>
      <trkpt lat="42.03603" lon="8.71414">
        <ele>-0.36</ele>
        <time>2017-06-06T08:30:34Z</time>
      </trkpt>
      <trkpt lat="42.03619" lon="8.71441">
        <ele>-0.16</ele>
        <time>2017-06-06T08:30:46Z</time>
      </trkpt>
      <trkpt lat="42.03631" lon="8.71462">
        <ele>-0.29</ele>
        <time>2017-06-06T08:30:58Z</time>
      </trkpt>
      <trkpt lat="42.03646" lon="8.71483">
        <ele>-0.44</ele>
        <time>2017-06-06T08:31:10Z</time>
      </trkpt>
      <trkpt lat="42.03663" lon="8.71501">
        <ele>-0.36</ele>
        <time>2017-06-06T08:31:21Z</time>
      </trkpt>
      <trkpt lat="42.0368" lon="8.71524">
        <ele>-0.6</ele>
        <time>2017-06-06T08:31:33Z</time>
      </trkpt>
      <trkpt lat="42.03699" lon="8.7155">
        <ele>-0.53</ele>
        <time>2017-06-06T08:31:45Z</time>
      </trkpt>
      <trkpt lat="42.03721" lon="8.71574">
        <ele>-0.49</ele>
        <time>2017-06-06T08:31:58Z</time>
      </trkpt>
      <trkpt lat="42.03738" lon="8.71603">
        <ele>-0.32</ele>
        <time>2017-06-06T08:32:11Z</time>
      </trkpt>
      <trkpt lat="42.03755" lon="8.7163">
        <ele>-0.28</ele>
        <time>2017-06-06T08:32:23Z</time>
      </trkpt>
      <trkpt lat="42.03775" lon="8.71652">
        <ele>-0.66</ele>
        <time>2017-06-06T08:32:35Z</time>
      </trkpt>
      <trkpt lat="42.03797" lon="8.71665">
        <ele>-0.56</ele>
        <time>2017-06-06T08:32:49Z</time>
      </trkpt>
      <trkpt lat="42.03802" lon="8.71669">
        <ele>-0.34</ele>
        <time>2017-06-06T08:32:52Z</time>
      </trkpt>
      <trkpt lat="42.03808" lon="8.71673">
        <ele>-0.25</ele>
        <time>2017-06-06T08:32:56Z</time>
      </trkpt>
      <trkpt lat="42.03832" lon="8.71689">
        <ele>-0.53</ele>
        <time>2017-06-06T08:33:09Z</time>
      </trkpt>
      <trkpt lat="42.0386" lon="8.71708">
        <ele>-0.55</ele>
        <time>2017-06-06T08:33:22Z</time>
      </trkpt>
      <trkpt lat="42.03869" lon="8.71713">
        <ele>-0.46</ele>
        <time>2017-06-06T08:33:27Z</time>
      </trkpt>
      <trkpt lat="42.0389" lon="8.7173">
        <ele>-0.65</ele>
        <time>2017-06-06T08:33:39Z</time>
      </trkpt>
      <trkpt lat="42.03905" lon="8.71764">
        <ele>-0.3</ele>
        <time>2017-06-06T08:33:51Z</time>
      </trkpt>
      <trkpt lat="42.03917" lon="8.71798">
        <ele>-0.75</ele>
        <time>2017-06-06T08:34:02Z</time>
      </trkpt>
      <trkpt lat="42.03935" lon="8.71824">
        <ele>-0.35</ele>
        <time>2017-06-06T08:34:14Z</time>
      </trkpt>
      <trkpt lat="42.03958" lon="8.71846">
        <ele>-0.52</ele>
        <time>2017-06-06T08:34:27Z</time>
      </trkpt>
      <trkpt lat="42.03969" lon="8.71861">
        <ele>-0.42</ele>
        <time>2017-06-06T08:34:34Z</time>
      </trkpt>
      <trkpt lat="42.03977" lon="8.7187">
        <ele>-0.49</ele>
        <time>2017-06-06T08:34:39Z</time>
      </trkpt>
      <trkpt lat="42.04" lon="8.7189">
        <ele>-0.66</ele>
        <time>2017-06-06T08:34:52Z</time>
      </trkpt>
      <trkpt lat="42.0402" lon="8.71914">
        <ele>-0.51</ele>
        <time>2017-06-06T08:35:04Z</time>
      </trkpt>
      <trkpt lat="42.04045" lon="8.71936">
        <ele>-0.55</ele>
        <time>2017-06-06T08:35:17Z</time>
      </trkpt>
      <trkpt lat="42.04066" lon="8.7195">
        <ele>-0.67</ele>
        <time>2017-06-06T08:35:28Z</time>
      </trkpt>
      <trkpt lat="42.04088" lon="8.71967">
        <ele>-0.85</ele>
        <time>2017-06-06T08:35:40Z</time>
      </trkpt>
      <trkpt lat="42.04112" lon="8.71983">
        <ele>-0.89</ele>
        <time>2017-06-06T08:35:53Z</time>
      </trkpt>
      <trkpt lat="42.04138" lon="8.72001">
        <ele>-0.83</ele>
        <time>2017-06-06T08:36:07Z</time>
      </trkpt>
      <trkpt lat="42.0414" lon="8.72002">
        <ele>-0.84</ele>
        <time>2017-06-06T08:36:08Z</time>
      </trkpt>
      <trkpt lat="42.04151" lon="8.72005">
        <ele>-0.82</ele>
        <time>2017-06-06T08:36:13Z</time>
      </trkpt>
      <trkpt lat="42.04178" lon="8.7202">
        <ele>-0.46</ele>
        <time>2017-06-06T08:36:27Z</time>
      </trkpt>
      <trkpt lat="42.04204" lon="8.72026">
        <ele>-0.96</ele>
        <time>2017-06-06T08:36:40Z</time>
      </trkpt>
      <trkpt lat="42.0423" lon="8.72024">
        <ele>-1.01</ele>
        <time>2017-06-06T08:36:52Z</time>
      </trkpt>
      <trkpt lat="42.04237" lon="8.72024">
        <ele>-1.08</ele>
        <time>2017-06-06T08:36:56Z</time>
      </trkpt>
      <trkpt lat="42.04258" lon="8.72028">
        <ele>-0.66</ele>
        <time>2017-06-06T08:37:09Z</time>
      </trkpt>
      <trkpt lat="42.04281" lon="8.72054">
        <ele>-0.54</ele>
        <time>2017-06-06T08:37:22Z</time>
      </trkpt>
      <trkpt lat="42.04303" lon="8.7208">
        <ele>-0.86</ele>
        <time>2017-06-06T08:37:37Z</time>
      </trkpt>
      <trkpt lat="42.04329" lon="8.72099">
        <ele>-1.03</ele>
        <time>2017-06-06T08:37:52Z</time>
      </trkpt>
      <trkpt lat="42.04342" lon="8.72095">
        <ele>-1.99</ele>
        <time>2017-06-06T08:38:04Z</time>
      </trkpt>
      <trkpt lat="42.04345" lon="8.72098">
        <ele>-0.83</ele>
        <time>2017-06-06T08:38:22Z</time>
      </trkpt>
      <trkpt lat="42.04346" lon="8.72104">
        <ele>-0.57</ele>
        <time>2017-06-06T08:38:44Z</time>
      </trkpt>
      <trkpt lat="42.04347" lon="8.72109">
        <ele>0.66</ele>
        <time>2017-06-06T08:39:03Z</time>
      </trkpt>
      <trkpt lat="42.04355" lon="8.72119">
        <ele>-0.28</ele>
        <time>2017-06-06T08:39:26Z</time>
      </trkpt>
      <trkpt lat="42.04371" lon="8.72123">
        <ele>-0.48</ele>
        <time>2017-06-06T08:39:44Z</time>
      </trkpt>
      <trkpt lat="42.04398" lon="8.72129">
        <ele>-0.59</ele>
        <time>2017-06-06T08:40:01Z</time>
      </trkpt>
      <trkpt lat="42.04421" lon="8.72142">
        <ele>-0.44</ele>
        <time>2017-06-06T08:40:15Z</time>
      </trkpt>
      <trkpt lat="42.04448" lon="8.7216">
        <ele>-0.78</ele>
        <time>2017-06-06T08:40:30Z</time>
      </trkpt>
      <trkpt lat="42.04476" lon="8.72171">
        <ele>-0.56</ele>
        <time>2017-06-06T08:40:44Z</time>
      </trkpt>
      <trkpt lat="42.045" lon="8.7218">
        <ele>-0.34</ele>
        <time>2017-06-06T08:40:56Z</time>
      </trkpt>
      <trkpt lat="42.04521" lon="8.72193">
        <ele>-0.41</ele>
        <time>2017-06-06T08:41:07Z</time>
      </trkpt>
      <trkpt lat="42.04523" lon="8.72194">
        <ele>-0.45</ele>
        <time>2017-06-06T08:41:08Z</time>
      </trkpt>
      <trkpt lat="42.04529" lon="8.72196">
        <ele>-0.65</ele>
        <time>2017-06-06T08:41:12Z</time>
      </trkpt>
      <trkpt lat="42.04548" lon="8.72207">
        <ele>-0.5</ele>
        <time>2017-06-06T08:41:23Z</time>
      </trkpt>
      <trkpt lat="42.0457" lon="8.7222">
        <ele>-0.62</ele>
        <time>2017-06-06T08:41:36Z</time>
      </trkpt>
      <trkpt lat="42.04573" lon="8.72222">
        <ele>-0.7</ele>
        <time>2017-06-06T08:41:38Z</time>
      </trkpt>
      <trkpt lat="42.0458" lon="8.72228">
        <ele>-0.69</ele>
        <time>2017-06-06T08:41:42Z</time>
      </trkpt>
      <trkpt lat="42.04602" lon="8.7224">
        <ele>-0.44</ele>
        <time>2017-06-06T08:41:54Z</time>
      </trkpt>
      <trkpt lat="42.04621" lon="8.7225">
        <ele>-0.63</ele>
        <time>2017-06-06T08:42:04Z</time>
      </trkpt>
      <trkpt lat="42.04642" lon="8.72263">
        <ele>-0.64</ele>
        <time>2017-06-06T08:42:15Z</time>
      </trkpt>
      <trkpt lat="42.04666" lon="8.72275">
        <ele>-0.58</ele>
        <time>2017-06-06T08:42:27Z</time>
      </trkpt>
      <trkpt lat="42.04695" lon="8.72289">
        <ele>-0.55</ele>
        <time>2017-06-06T08:42:41Z</time>
      </trkpt>
      <trkpt lat="42.04705" lon="8.72294">
        <ele>-0.69</ele>
        <time>2017-06-06T08:42:46Z</time>
      </trkpt>
      <trkpt lat="42.04715" lon="8.72298">
        <ele>-0.33</ele>
        <time>2017-06-06T08:42:52Z</time>
      </trkpt>
      <trkpt lat="42.04724" lon="8.72301">
        <ele>-0.36</ele>
        <time>2017-06-06T08:42:57Z</time>
      </trkpt>
      <trkpt lat="42.04734" lon="8.72307">
        <ele>-0.13</ele>
        <time>2017-06-06T08:43:03Z</time>
      </trkpt>
      <trkpt lat="42.0474" lon="8.72313">
        <ele>-0.07</ele>
        <time>2017-06-06T08:43:08Z</time>
      </trkpt>
      <trkpt lat="42.0476" lon="8.72335">
        <ele>-0.21</ele>
        <time>2017-06-06T08:43:22Z</time>
      </trkpt>
      <trkpt lat="42.04775" lon="8.72362">
        <ele>-0.38</ele>
        <time>2017-06-06T08:43:34Z</time>
      </trkpt>
      <trkpt lat="42.04785" lon="8.72377">
        <ele>-0.27</ele>
        <time>2017-06-06T08:43:42Z</time>
      </trkpt>
      <trkpt lat="42.04796" lon="8.72385">
        <ele>-0.2</ele>
        <time>2017-06-06T08:43:48Z</time>
      </trkpt>
      <trkpt lat="42.0482" lon="8.72405">
        <ele>-0.02</ele>
        <time>2017-06-06T08:44:02Z</time>
      </trkpt>
      <trkpt lat="42.04841" lon="8.72424">
        <ele>-0.29</ele>
        <time>2017-06-06T08:44:14Z</time>
      </trkpt>
      <trkpt lat="42.04864" lon="8.72438">
        <ele>-0.37</ele>
        <time>2017-06-06T08:44:26Z</time>
      </trkpt>
      <trkpt lat="42.04884" lon="8.72442">
        <ele>-0.58</ele>
        <time>2017-06-06T08:44:38Z</time>
      </trkpt>
      <trkpt lat="42.04889" lon="8.72442">
        <ele>-0.54</ele>
        <time>2017-06-06T08:44:41Z</time>
      </trkpt>
      <trkpt lat="42.04905" lon="8.72444">
        <ele>-0.18</ele>
        <time>2017-06-06T08:44:51Z</time>
      </trkpt>
      <trkpt lat="42.04915" lon="8.7245">
        <ele>-0.07</ele>
        <time>2017-06-06T08:44:57Z</time>
      </trkpt>
      <trkpt lat="42.04936" lon="8.72473">
        <ele>-0.23</ele>
        <time>2017-06-06T08:45:11Z</time>
      </trkpt>
      <trkpt lat="42.04938" lon="8.72475">
        <ele>-0.27</ele>
        <time>2017-06-06T08:45:12Z</time>
      </trkpt>
      <trkpt lat="42.04949" lon="8.72482">
        <ele>-0.39</ele>
        <time>2017-06-06T08:45:18Z</time>
      </trkpt>
      <trkpt lat="42.04973" lon="8.72496">
        <ele>-0.4</ele>
        <time>2017-06-06T08:45:31Z</time>
      </trkpt>
      <trkpt lat="42.04998" lon="8.72504">
        <ele>-0.32</ele>
        <time>2017-06-06T08:45:44Z</time>
      </trkpt>
      <trkpt lat="42.05009" lon="8.72509">
        <ele>-0.42</ele>
        <time>2017-06-06T08:45:50Z</time>
      </trkpt>
      <trkpt lat="42.05025" lon="8.7252">
        <ele>-0.54</ele>
        <time>2017-06-06T08:46:00Z</time>
      </trkpt>
      <trkpt lat="42.05049" lon="8.72533">
        <ele>-0.4</ele>
        <time>2017-06-06T08:46:12Z</time>
      </trkpt>
      <trkpt lat="42.05071" lon="8.72552">
        <ele>-0.42</ele>
        <time>2017-06-06T08:46:25Z</time>
      </trkpt>
      <trkpt lat="42.05098" lon="8.72571">
        <ele>-0.47</ele>
        <time>2017-06-06T08:46:38Z</time>
      </trkpt>
      <trkpt lat="42.05119" lon="8.72584">
        <ele>-0.34</ele>
        <time>2017-06-06T08:46:49Z</time>
      </trkpt>
      <trkpt lat="42.05132" lon="8.72601">
        <ele>-0.05</ele>
        <time>2017-06-06T08:47:00Z</time>
      </trkpt>
      <trkpt lat="42.05148" lon="8.72626">
        <ele>-0.18</ele>
        <time>2017-06-06T08:47:14Z</time>
      </trkpt>
      <trkpt lat="42.05172" lon="8.72642">
        <ele>-0.58</ele>
        <time>2017-06-06T08:47:28Z</time>
      </trkpt>
      <trkpt lat="42.05197" lon="8.72654">
        <ele>-0.73</ele>
        <time>2017-06-06T08:47:40Z</time>
      </trkpt>
      <trkpt lat="42.05223" lon="8.72661">
        <ele>-0.41</ele>
        <time>2017-06-06T08:47:52Z</time>
      </trkpt>
      <trkpt lat="42.05241" lon="8.72669">
        <ele>-0.37</ele>
        <time>2017-06-06T08:48:00Z</time>
      </trkpt>
      <trkpt lat="42.05261" lon="8.72694">
        <ele>-0.31</ele>
        <time>2017-06-06T08:48:13Z</time>
      </trkpt>
      <trkpt lat="42.05281" lon="8.72715">
        <ele>-0.16</ele>
        <time>2017-06-06T08:48:25Z</time>
      </trkpt>
      <trkpt lat="42.05285" lon="8.72717">
        <ele>-0.29</ele>
        <time>2017-06-06T08:48:27Z</time>
      </trkpt>
      <trkpt lat="42.05296" lon="8.72723">
        <ele>-0.23</ele>
        <time>2017-06-06T08:48:34Z</time>
      </trkpt>
      <trkpt lat="42.05322" lon="8.72748">
        <ele>-0.36</ele>
        <time>2017-06-06T08:48:49Z</time>
      </trkpt>
      <trkpt lat="42.05347" lon="8.72766">
        <ele>-0.53</ele>
        <time>2017-06-06T08:49:02Z</time>
      </trkpt>
      <trkpt lat="42.05368" lon="8.72788">
        <ele>-0.61</ele>
        <time>2017-06-06T08:49:15Z</time>
      </trkpt>
      <trkpt lat="42.05387" lon="8.7281">
        <ele>-0.73</ele>
        <time>2017-06-06T08:49:26Z</time>
      </trkpt>
      <trkpt lat="42.05412" lon="8.72828">
        <ele>-0.88</ele>
        <time>2017-06-06T08:49:38Z</time>
      </trkpt>
      <trkpt lat="42.05435" lon="8.72851">
        <ele>-0.81</ele>
        <time>2017-06-06T08:49:50Z</time>
      </trkpt>
      <trkpt lat="42.05459" lon="8.72873">
        <ele>-0.62</ele>
        <time>2017-06-06T08:50:03Z</time>
      </trkpt>
      <trkpt lat="42.05461" lon="8.72875">
        <ele>-0.6</ele>
        <time>2017-06-06T08:50:04Z</time>
      </trkpt>
      <trkpt lat="42.05467" lon="8.72878">
        <ele>-0.53</ele>
        <time>2017-06-06T08:50:08Z</time>
      </trkpt>
      <trkpt lat="42.05492" lon="8.72895">
        <ele>-0.56</ele>
        <time>2017-06-06T08:50:22Z</time>
      </trkpt>
      <trkpt lat="42.05515" lon="8.72921">
        <ele>-0.78</ele>
        <time>2017-06-06T08:50:35Z</time>
      </trkpt>
      <trkpt lat="42.05538" lon="8.72945">
        <ele>-0.91</ele>
        <time>2017-06-06T08:50:48Z</time>
      </trkpt>
      <trkpt lat="42.05563" lon="8.72976">
        <ele>-0.73</ele>
        <time>2017-06-06T08:51:04Z</time>
      </trkpt>
      <trkpt lat="42.05579" lon="8.72991">
        <ele>-0.73</ele>
        <time>2017-06-06T08:51:13Z</time>
      </trkpt>
      <trkpt lat="42.05593" lon="8.73001">
        <ele>-0.75</ele>
        <time>2017-06-06T08:51:20Z</time>
      </trkpt>
      <trkpt lat="42.05623" lon="8.7303">
        <ele>-0.91</ele>
        <time>2017-06-06T08:51:35Z</time>
      </trkpt>
      <trkpt lat="42.05638" lon="8.73046">
        <ele>-0.69</ele>
        <time>2017-06-06T08:51:44Z</time>
      </trkpt>
      <trkpt lat="42.05661" lon="8.73067">
        <ele>-0.84</ele>
        <time>2017-06-06T08:51:57Z</time>
      </trkpt>
      <trkpt lat="42.05685" lon="8.73089">
        <ele>-0.97</ele>
        <time>2017-06-06T08:52:10Z</time>
      </trkpt>
      <trkpt lat="42.05707" lon="8.73108">
        <ele>-1.08</ele>
        <time>2017-06-06T08:52:22Z</time>
      </trkpt>
      <trkpt lat="42.05729" lon="8.73128">
        <ele>-1.02</ele>
        <time>2017-06-06T08:52:35Z</time>
      </trkpt>
      <trkpt lat="42.05757" lon="8.73155">
        <ele>-1.03</ele>
        <time>2017-06-06T08:52:51Z</time>
      </trkpt>
      <trkpt lat="42.05787" lon="8.73185">
        <ele>-1.44</ele>
        <time>2017-06-06T08:53:06Z</time>
      </trkpt>
      <trkpt lat="42.05814" lon="8.73212">
        <ele>-1.06</ele>
        <time>2017-06-06T08:53:19Z</time>
      </trkpt>
      <trkpt lat="42.05831" lon="8.73237">
        <ele>-0.95</ele>
        <time>2017-06-06T08:53:31Z</time>
      </trkpt>
      <trkpt lat="42.05846" lon="8.73263">
        <ele>-0.98</ele>
        <time>2017-06-06T08:53:44Z</time>
      </trkpt>
      <trkpt lat="42.05872" lon="8.73283">
        <ele>-1.22</ele>
        <time>2017-06-06T08:53:58Z</time>
      </trkpt>
      <trkpt lat="42.05901" lon="8.73301">
        <ele>-1.19</ele>
        <time>2017-06-06T08:54:12Z</time>
      </trkpt>
      <trkpt lat="42.05927" lon="8.73316">
        <ele>-1.05</ele>
        <time>2017-06-06T08:54:24Z</time>
      </trkpt>
      <trkpt lat="42.05951" lon="8.73341">
        <ele>-1.07</ele>
        <time>2017-06-06T08:54:37Z</time>
      </trkpt>
      <trkpt lat="42.05978" lon="8.73369">
        <ele>-1.11</ele>
        <time>2017-06-06T08:54:52Z</time>
      </trkpt>
      <trkpt lat="42.06007" lon="8.73391">
        <ele>-1.31</ele>
        <time>2017-06-06T08:55:06Z</time>
      </trkpt>
      <trkpt lat="42.06035" lon="8.73417">
        <ele>-1.34</ele>
        <time>2017-06-06T08:55:20Z</time>
      </trkpt>
      <trkpt lat="42.06059" lon="8.73443">
        <ele>-1.23</ele>
        <time>2017-06-06T08:55:33Z</time>
      </trkpt>
      <trkpt lat="42.06084" lon="8.73463">
        <ele>-1.19</ele>
        <time>2017-06-06T08:55:45Z</time>
      </trkpt>
      <trkpt lat="42.06106" lon="8.73482">
        <ele>-1.36</ele>
        <time>2017-06-06T08:55:57Z</time>
      </trkpt>
      <trkpt lat="42.06134" lon="8.73504">
        <ele>-1.39</ele>
        <time>2017-06-06T08:56:11Z</time>
      </trkpt>
      <trkpt lat="42.06158" lon="8.7352">
        <ele>-1.32</ele>
        <time>2017-06-06T08:56:23Z</time>
      </trkpt>
      <trkpt lat="42.06185" lon="8.73545">
        <ele>-1.65</ele>
        <time>2017-06-06T08:56:37Z</time>
      </trkpt>
      <trkpt lat="42.06211" lon="8.73559">
        <ele>-1.46</ele>
        <time>2017-06-06T08:56:50Z</time>
      </trkpt>
      <trkpt lat="42.06236" lon="8.73573">
        <ele>-1.62</ele>
        <time>2017-06-06T08:57:03Z</time>
      </trkpt>
      <trkpt lat="42.06259" lon="8.73585">
        <ele>-1.56</ele>
        <time>2017-06-06T08:57:13Z</time>
      </trkpt>
      <trkpt lat="42.06284" lon="8.73601">
        <ele>-1.44</ele>
        <time>2017-06-06T08:57:26Z</time>
      </trkpt>
      <trkpt lat="42.0631" lon="8.7361">
        <ele>-1.43</ele>
        <time>2017-06-06T08:57:38Z</time>
      </trkpt>
      <trkpt lat="42.06343" lon="8.73616">
        <ele>-1.57</ele>
        <time>2017-06-06T08:57:53Z</time>
      </trkpt>
      <trkpt lat="42.06373" lon="8.73631">
        <ele>-1.36</ele>
        <time>2017-06-06T08:58:07Z</time>
      </trkpt>
      <trkpt lat="42.06401" lon="8.73648">
        <ele>-1.32</ele>
        <time>2017-06-06T08:58:22Z</time>
      </trkpt>
      <trkpt lat="42.06432" lon="8.73653">
        <ele>-1.14</ele>
        <time>2017-06-06T08:58:37Z</time>
      </trkpt>
      <trkpt lat="42.06461" lon="8.73657">
        <ele>-1.2</ele>
        <time>2017-06-06T08:58:51Z</time>
      </trkpt>
      <trkpt lat="42.06491" lon="8.73656">
        <ele>-1.3</ele>
        <time>2017-06-06T08:59:06Z</time>
      </trkpt>
      <trkpt lat="42.06515" lon="8.73647">
        <ele>-1.24</ele>
        <time>2017-06-06T08:59:19Z</time>
      </trkpt>
      <trkpt lat="42.06536" lon="8.73648">
        <ele>-1.15</ele>
        <time>2017-06-06T08:59:31Z</time>
      </trkpt>
      <trkpt lat="42.06561" lon="8.73647">
        <ele>-1.49</ele>
        <time>2017-06-06T08:59:47Z</time>
      </trkpt>
      <trkpt lat="42.06571" lon="8.73642">
        <ele>-0.67</ele>
        <time>2017-06-06T09:00:00Z</time>
      </trkpt>
      <trkpt lat="42.06574" lon="8.73644">
        <ele>-0.63</ele>
        <time>2017-06-06T09:00:22Z</time>
      </trkpt>
      <trkpt lat="42.06576" lon="8.73642">
        <ele>-0.59</ele>
        <time>2017-06-06T09:00:43Z</time>
      </trkpt>
      <trkpt lat="42.06575" lon="8.73641">
        <ele>13.52</ele>
        <time>2017-06-06T09:01:03Z</time>
      </trkpt>
      <trkpt lat="42.06575" lon="8.7364">
        <ele>13.52</ele>
        <time>2017-06-06T09:01:04Z</time>
      </trkpt>
      <trkpt lat="42.06585" lon="8.73683">
        <ele>0.74</ele>
        <time>2017-06-06T09:42:06Z</time>
      </trkpt>
      <trkpt lat="42.06587" lon="8.73684">
        <ele>36.83</ele>
        <time>2017-06-06T09:42:07Z</time>
      </trkpt>
      <trkpt lat="42.06591" lon="8.73614">
        <ele>36.94</ele>
        <time>2017-06-06T09:42:17Z</time>
      </trkpt>
      <trkpt lat="42.06579" lon="8.73647">
        <ele>36.78</ele>
        <time>2017-06-06T09:42:38Z</time>
      </trkpt>
      <trkpt lat="42.06579" lon="8.73648">
        <ele>35.96</ele>
        <time>2017-06-06T09:43:07Z</time>
      </trkpt>
      <trkpt lat="42.0658" lon="8.73648">
        <ele>35.11</ele>
        <time>2017-06-06T09:43:35Z</time>
      </trkpt>
      <trkpt lat="42.06578" lon="8.73647">
        <ele>34.91</ele>
        <time>2017-06-06T09:44:02Z</time>
      </trkpt>
      <trkpt lat="42.06579" lon="8.73651">
        <ele>33.74</ele>
        <time>2017-06-06T09:44:33Z</time>
      </trkpt>
      <trkpt lat="42.06579" lon="8.73649">
        <ele>30.76</ele>
        <time>2017-06-06T09:44:36Z</time>
      </trkpt>
      <trkpt lat="42.06579" lon="8.7363">
        <ele>36.35</ele>
        <time>2017-06-06T09:50:40Z</time>
      </trkpt>
      <trkpt lat="42.06579" lon="8.7363">
        <ele>7.31</ele>
        <time>2017-06-06T09:50:41Z</time>
      </trkpt>
      <trkpt lat="42.0658" lon="8.73641">
        <ele>7.67</ele>
        <time>2017-06-06T09:51:06Z</time>
      </trkpt>
      <trkpt lat="42.06583" lon="8.73648">
        <ele>8.47</ele>
        <time>2017-06-06T09:51:29Z</time>
      </trkpt>
      <trkpt lat="42.06578" lon="8.73639">
        <ele>7.95</ele>
        <time>2017-06-06T09:51:43Z</time>
      </trkpt>
      <trkpt lat="42.06575" lon="8.73636">
        <ele>7.44</ele>
        <time>2017-06-06T09:52:00Z</time>
      </trkpt>
      <trkpt lat="42.0657" lon="8.7363">
        <ele>7.6</ele>
        <time>2017-06-06T09:52:13Z</time>
      </trkpt>
      <trkpt lat="42.06549" lon="8.73593">
        <ele>7.21</ele>
        <time>2017-06-06T09:52:30Z</time>
      </trkpt>
      <trkpt lat="42.06528" lon="8.73558">
        <ele>6.97</ele>
        <time>2017-06-06T09:52:50Z</time>
      </trkpt>
      <trkpt lat="42.0651" lon="8.73519">
        <ele>6.88</ele>
        <time>2017-06-06T09:53:09Z</time>
      </trkpt>
      <trkpt lat="42.06495" lon="8.73489">
        <ele>6.86</ele>
        <time>2017-06-06T09:53:25Z</time>
      </trkpt>
      <trkpt lat="42.06487" lon="8.73435">
        <ele>5.99</ele>
        <time>2017-06-06T09:53:44Z</time>
      </trkpt>
      <trkpt lat="42.06475" lon="8.73397">
        <ele>6.27</ele>
        <time>2017-06-06T09:54:02Z</time>
      </trkpt>
      <trkpt lat="42.06452" lon="8.73361">
        <ele>6.68</ele>
        <time>2017-06-06T09:54:21Z</time>
      </trkpt>
      <trkpt lat="42.06428" lon="8.73323">
        <ele>6.57</ele>
        <time>2017-06-06T09:54:39Z</time>
      </trkpt>
      <trkpt lat="42.06409" lon="8.73279">
        <ele>6.32</ele>
        <time>2017-06-06T09:54:58Z</time>
      </trkpt>
      <trkpt lat="42.06397" lon="8.73236">
        <ele>6.27</ele>
        <time>2017-06-06T09:55:16Z</time>
      </trkpt>
      <trkpt lat="42.06386" lon="8.73189">
        <ele>6.01</ele>
        <time>2017-06-06T09:55:36Z</time>
      </trkpt>
      <trkpt lat="42.06371" lon="8.7314">
        <ele>6.16</ele>
        <time>2017-06-06T09:55:57Z</time>
      </trkpt>
      <trkpt lat="42.06353" lon="8.73096">
        <ele>5.79</ele>
        <time>2017-06-06T09:56:17Z</time>
      </trkpt>
      <trkpt lat="42.06337" lon="8.73064">
        <ele>6.25</ele>
        <time>2017-06-06T09:56:33Z</time>
      </trkpt>
      <trkpt lat="42.06324" lon="8.73015">
        <ele>5.71</ele>
        <time>2017-06-06T09:56:54Z</time>
      </trkpt>
      <trkpt lat="42.06321" lon="8.72975">
        <ele>5.37</ele>
        <time>2017-06-06T09:57:08Z</time>
      </trkpt>
      <trkpt lat="42.0632" lon="8.72927">
        <ele>5.37</ele>
        <time>2017-06-06T09:57:25Z</time>
      </trkpt>
      <trkpt lat="42.06318" lon="8.72889">
        <ele>5.43</ele>
        <time>2017-06-06T09:57:40Z</time>
      </trkpt>
      <trkpt lat="42.06314" lon="8.7285">
        <ele>5.32</ele>
        <time>2017-06-06T09:57:56Z</time>
      </trkpt>
      <trkpt lat="42.06307" lon="8.72806">
        <ele>5.64</ele>
        <time>2017-06-06T09:58:16Z</time>
      </trkpt>
      <trkpt lat="42.06301" lon="8.72761">
        <ele>5.71</ele>
        <time>2017-06-06T09:58:34Z</time>
      </trkpt>
      <trkpt lat="42.063" lon="8.72719">
        <ele>5.69</ele>
        <time>2017-06-06T09:58:50Z</time>
      </trkpt>
      <trkpt lat="42.06296" lon="8.72678">
        <ele>5.8</ele>
        <time>2017-06-06T09:59:06Z</time>
      </trkpt>
      <trkpt lat="42.06292" lon="8.7263">
        <ele>5.72</ele>
        <time>2017-06-06T09:59:24Z</time>
      </trkpt>
      <trkpt lat="42.06291" lon="8.72595">
        <ele>5.48</ele>
        <time>2017-06-06T09:59:38Z</time>
      </trkpt>
      <trkpt lat="42.06293" lon="8.72551">
        <ele>5.21</ele>
        <time>2017-06-06T09:59:55Z</time>
      </trkpt>
      <trkpt lat="42.06293" lon="8.725">
        <ele>5.16</ele>
        <time>2017-06-06T10:00:15Z</time>
      </trkpt>
      <trkpt lat="42.06294" lon="8.72451">
        <ele>4.79</ele>
        <time>2017-06-06T10:00:33Z</time>
      </trkpt>
      <trkpt lat="42.06294" lon="8.72408">
        <ele>4.55</ele>
        <time>2017-06-06T10:00:50Z</time>
      </trkpt>
      <trkpt lat="42.0629" lon="8.72364">
        <ele>5.15</ele>
        <time>2017-06-06T10:01:08Z</time>
      </trkpt>
      <trkpt lat="42.0629" lon="8.7232">
        <ele>4.99</ele>
        <time>2017-06-06T10:01:25Z</time>
      </trkpt>
      <trkpt lat="42.06292" lon="8.72266">
        <ele>4.94</ele>
        <time>2017-06-06T10:01:46Z</time>
      </trkpt>
      <trkpt lat="42.0629" lon="8.72223">
        <ele>5.04</ele>
        <time>2017-06-06T10:02:03Z</time>
      </trkpt>
      <trkpt lat="42.06291" lon="8.72172">
        <ele>4.57</ele>
        <time>2017-06-06T10:02:22Z</time>
      </trkpt>
      <trkpt lat="42.06296" lon="8.72135">
        <ele>4.54</ele>
        <time>2017-06-06T10:02:37Z</time>
      </trkpt>
      <trkpt lat="42.06304" lon="8.72096">
        <ele>4.46</ele>
        <time>2017-06-06T10:02:52Z</time>
      </trkpt>
      <trkpt lat="42.06313" lon="8.72055">
        <ele>4.65</ele>
        <time>2017-06-06T10:03:09Z</time>
      </trkpt>
      <trkpt lat="42.06325" lon="8.72017">
        <ele>4.48</ele>
        <time>2017-06-06T10:03:25Z</time>
      </trkpt>
      <trkpt lat="42.0634" lon="8.71979">
        <ele>4.18</ele>
        <time>2017-06-06T10:03:42Z</time>
      </trkpt>
      <trkpt lat="42.06354" lon="8.71929">
        <ele>4.11</ele>
        <time>2017-06-06T10:04:04Z</time>
      </trkpt>
      <trkpt lat="42.06373" lon="8.71908">
        <ele>4.14</ele>
        <time>2017-06-06T10:04:19Z</time>
      </trkpt>
      <trkpt lat="42.0639" lon="8.71892">
        <ele>4.36</ele>
        <time>2017-06-06T10:04:34Z</time>
      </trkpt>
      <trkpt lat="42.06394" lon="8.71891">
        <ele>4.46</ele>
        <time>2017-06-06T10:04:50Z</time>
      </trkpt>
      <trkpt lat="42.06397" lon="8.71894">
        <ele>3.98</ele>
        <time>2017-06-06T10:05:14Z</time>
      </trkpt>
      <trkpt lat="42.06399" lon="8.71897">
        <ele>3.88</ele>
        <time>2017-06-06T10:05:42Z</time>
      </trkpt>
      <trkpt lat="42.06404" lon="8.71898">
        <ele>4.24</ele>
        <time>2017-06-06T10:06:08Z</time>
      </trkpt>
      <trkpt lat="42.06413" lon="8.71898">
        <ele>3.78</ele>
        <time>2017-06-06T10:06:35Z</time>
      </trkpt>
      <trkpt lat="42.06422" lon="8.719">
        <ele>3.46</ele>
        <time>2017-06-06T10:06:59Z</time>
      </trkpt>
      <trkpt lat="42.06434" lon="8.71902">
        <ele>3.92</ele>
        <time>2017-06-06T10:07:19Z</time>
      </trkpt>
      <trkpt lat="42.06457" lon="8.71906">
        <ele>3.66</ele>
        <time>2017-06-06T10:07:34Z</time>
      </trkpt>
      <trkpt lat="42.06481" lon="8.71901">
        <ele>3.34</ele>
        <time>2017-06-06T10:07:48Z</time>
      </trkpt>
      <trkpt lat="42.06496" lon="8.71892">
        <ele>3.38</ele>
        <time>2017-06-06T10:07:59Z</time>
      </trkpt>
      <trkpt lat="42.06497" lon="8.71892">
        <ele>3.42</ele>
        <time>2017-06-06T10:08:00Z</time>
      </trkpt>
      <trkpt lat="42.06508" lon="8.71877">
        <ele>3.54</ele>
        <time>2017-06-06T10:08:11Z</time>
      </trkpt>
      <trkpt lat="42.06508" lon="8.71849">
        <ele>3.57</ele>
        <time>2017-06-06T10:08:27Z</time>
      </trkpt>
      <trkpt lat="42.06502" lon="8.71831">
        <ele>3.29</ele>
        <time>2017-06-06T10:08:41Z</time>
      </trkpt>
      <trkpt lat="42.06505" lon="8.71816">
        <ele>3.3</ele>
        <time>2017-06-06T10:09:07Z</time>
      </trkpt>
      <trkpt lat="42.06512" lon="8.71806">
        <ele>3.2</ele>
        <time>2017-06-06T10:09:24Z</time>
      </trkpt>
      <trkpt lat="42.0652" lon="8.71791">
        <ele>3.37</ele>
        <time>2017-06-06T10:09:38Z</time>
      </trkpt>
      <trkpt lat="42.06525" lon="8.71778">
        <ele>3.24</ele>
        <time>2017-06-06T10:09:49Z</time>
      </trkpt>
      <trkpt lat="42.06523" lon="8.71762">
        <ele>3.12</ele>
        <time>2017-06-06T10:09:57Z</time>
      </trkpt>
      <trkpt lat="42.06519" lon="8.71754">
        <ele>3.1</ele>
        <time>2017-06-06T10:10:01Z</time>
      </trkpt>
      <trkpt lat="42.06514" lon="8.71747">
        <ele>3.35</ele>
        <time>2017-06-06T10:10:05Z</time>
      </trkpt>
      <trkpt lat="42.06498" lon="8.71712">
        <ele>3.33</ele>
        <time>2017-06-06T10:10:21Z</time>
      </trkpt>
      <trkpt lat="42.06488" lon="8.71684">
        <ele>3.36</ele>
        <time>2017-06-06T10:10:34Z</time>
      </trkpt>
      <trkpt lat="42.06476" lon="8.71651">
        <ele>3.35</ele>
        <time>2017-06-06T10:10:48Z</time>
      </trkpt>
      <trkpt lat="42.06474" lon="8.71646">
        <ele>3.33</ele>
        <time>2017-06-06T10:10:50Z</time>
      </trkpt>
      <trkpt lat="42.06457" lon="8.71616">
        <ele>3.28</ele>
        <time>2017-06-06T10:11:05Z</time>
      </trkpt>
      <trkpt lat="42.06448" lon="8.71588">
        <ele>3.04</ele>
        <time>2017-06-06T10:11:18Z</time>
      </trkpt>
      <trkpt lat="42.06439" lon="8.71561">
        <ele>2.99</ele>
        <time>2017-06-06T10:11:30Z</time>
      </trkpt>
      <trkpt lat="42.06423" lon="8.71532">
        <ele>3.01</ele>
        <time>2017-06-06T10:11:44Z</time>
      </trkpt>
      <trkpt lat="42.06408" lon="8.71515">
        <ele>2.74</ele>
        <time>2017-06-06T10:11:55Z</time>
      </trkpt>
      <trkpt lat="42.06384" lon="8.715">
        <ele>2.89</ele>
        <time>2017-06-06T10:12:09Z</time>
      </trkpt>
      <trkpt lat="42.0636" lon="8.71494">
        <ele>2.64</ele>
        <time>2017-06-06T10:12:21Z</time>
      </trkpt>
      <trkpt lat="42.06337" lon="8.71492">
        <ele>2.56</ele>
        <time>2017-06-06T10:12:34Z</time>
      </trkpt>
      <trkpt lat="42.0632" lon="8.71506">
        <ele>2.52</ele>
        <time>2017-06-06T10:12:46Z</time>
      </trkpt>
      <trkpt lat="42.06302" lon="8.71527">
        <ele>2.23</ele>
        <time>2017-06-06T10:12:59Z</time>
      </trkpt>
      <trkpt lat="42.0628" lon="8.71548">
        <ele>2.22</ele>
        <time>2017-06-06T10:13:12Z</time>
      </trkpt>
      <trkpt lat="42.06266" lon="8.7157">
        <ele>2.09</ele>
        <time>2017-06-06T10:13:23Z</time>
      </trkpt>
      <trkpt lat="42.0624" lon="8.71593">
        <ele>2.37</ele>
        <time>2017-06-06T10:13:39Z</time>
      </trkpt>
      <trkpt lat="42.06212" lon="8.71606">
        <ele>2.3</ele>
        <time>2017-06-06T10:13:53Z</time>
      </trkpt>
      <trkpt lat="42.06186" lon="8.71614">
        <ele>2.09</ele>
        <time>2017-06-06T10:14:07Z</time>
      </trkpt>
      <trkpt lat="42.0616" lon="8.71629">
        <ele>1.93</ele>
        <time>2017-06-06T10:14:22Z</time>
      </trkpt>
      <trkpt lat="42.06137" lon="8.71645">
        <ele>1.87</ele>
        <time>2017-06-06T10:14:35Z</time>
      </trkpt>
      <trkpt lat="42.06117" lon="8.71659">
        <ele>1.73</ele>
        <time>2017-06-06T10:14:47Z</time>
      </trkpt>
      <trkpt lat="42.06093" lon="8.71667">
        <ele>1.81</ele>
        <time>2017-06-06T10:14:59Z</time>
      </trkpt>
      <trkpt lat="42.06071" lon="8.71671">
        <ele>1.8</ele>
        <time>2017-06-06T10:15:10Z</time>
      </trkpt>
      <trkpt lat="42.06044" lon="8.71665">
        <ele>1.61</ele>
        <time>2017-06-06T10:15:26Z</time>
      </trkpt>
      <trkpt lat="42.0602" lon="8.71652">
        <ele>1.77</ele>
        <time>2017-06-06T10:15:40Z</time>
      </trkpt>
      <trkpt lat="42.05997" lon="8.71641">
        <ele>1.84</ele>
        <time>2017-06-06T10:15:53Z</time>
      </trkpt>
      <trkpt lat="42.05968" lon="8.71634">
        <ele>1.53</ele>
        <time>2017-06-06T10:16:10Z</time>
      </trkpt>
      <trkpt lat="42.05942" lon="8.71624">
        <ele>1.51</ele>
        <time>2017-06-06T10:16:24Z</time>
      </trkpt>
      <trkpt lat="42.05923" lon="8.71622">
        <ele>1.25</ele>
        <time>2017-06-06T10:16:35Z</time>
      </trkpt>
      <trkpt lat="42.05917" lon="8.71621">
        <ele>1.18</ele>
        <time>2017-06-06T10:16:39Z</time>
      </trkpt>
      <trkpt lat="42.05899" lon="8.71614">
        <ele>1.16</ele>
        <time>2017-06-06T10:16:51Z</time>
      </trkpt>
      <trkpt lat="42.05887" lon="8.71606">
        <ele>1.18</ele>
        <time>2017-06-06T10:16:59Z</time>
      </trkpt>
      <trkpt lat="42.0588" lon="8.71602">
        <ele>1.22</ele>
        <time>2017-06-06T10:17:04Z</time>
      </trkpt>
      <trkpt lat="42.05856" lon="8.71587">
        <ele>1.01</ele>
        <time>2017-06-06T10:17:18Z</time>
      </trkpt>
      <trkpt lat="42.05836" lon="8.71578">
        <ele>1</ele>
        <time>2017-06-06T10:17:31Z</time>
      </trkpt>
      <trkpt lat="42.05812" lon="8.71564">
        <ele>0.93</ele>
        <time>2017-06-06T10:17:44Z</time>
      </trkpt>
      <trkpt lat="42.05784" lon="8.7155">
        <ele>0.97</ele>
        <time>2017-06-06T10:17:58Z</time>
      </trkpt>
      <trkpt lat="42.05778" lon="8.71547">
        <ele>0.84</ele>
        <time>2017-06-06T10:18:01Z</time>
      </trkpt>
      <trkpt lat="42.05771" lon="8.71546">
        <ele>0.69</ele>
        <time>2017-06-06T10:18:06Z</time>
      </trkpt>
      <trkpt lat="42.05763" lon="8.71551">
        <ele>0.57</ele>
        <time>2017-06-06T10:18:24Z</time>
      </trkpt>
      <trkpt lat="42.05758" lon="8.71551">
        <ele>1.22</ele>
        <time>2017-06-06T10:18:31Z</time>
      </trkpt>
      <trkpt lat="42.05741" lon="8.71536">
        <ele>0.37</ele>
        <time>2017-06-06T10:18:46Z</time>
      </trkpt>
      <trkpt lat="42.0574" lon="8.71535">
        <ele>0.33</ele>
        <time>2017-06-06T10:18:47Z</time>
      </trkpt>
      <trkpt lat="42.05716" lon="8.71502">
        <ele>0.15</ele>
        <time>2017-06-06T10:19:06Z</time>
      </trkpt>
      <trkpt lat="42.05691" lon="8.71483">
        <ele>0.24</ele>
        <time>2017-06-06T10:19:20Z</time>
      </trkpt>
      <trkpt lat="42.05663" lon="8.71464">
        <ele>0.25</ele>
        <time>2017-06-06T10:19:35Z</time>
      </trkpt>
      <trkpt lat="42.05642" lon="8.7145">
        <ele>0.29</ele>
        <time>2017-06-06T10:19:49Z</time>
      </trkpt>
      <trkpt lat="42.05622" lon="8.71443">
        <ele>0.17</ele>
        <time>2017-06-06T10:20:03Z</time>
      </trkpt>
      <trkpt lat="42.05605" lon="8.71426">
        <ele>-0.03</ele>
        <time>2017-06-06T10:20:16Z</time>
      </trkpt>
      <trkpt lat="42.05604" lon="8.71425">
        <ele>-0.06</ele>
        <time>2017-06-06T10:20:17Z</time>
      </trkpt>
      <trkpt lat="42.05592" lon="8.71417">
        <time>2017-06-06T10:20:27Z</time>
      </trkpt>
      <trkpt lat="42.05574" lon="8.71397">
        <ele>0.21</ele>
        <time>2017-06-06T10:20:42Z</time>
      </trkpt>
      <trkpt lat="42.05553" lon="8.71363">
        <ele>-0.05</ele>
        <time>2017-06-06T10:21:00Z</time>
      </trkpt>
      <trkpt lat="42.05533" lon="8.71335">
        <ele>-0.11</ele>
        <time>2017-06-06T10:21:15Z</time>
      </trkpt>
      <trkpt lat="42.05516" lon="8.71314">
        <ele>-0.09</ele>
        <time>2017-06-06T10:21:28Z</time>
      </trkpt>
      <trkpt lat="42.05497" lon="8.71298">
        <time>2017-06-06T10:21:42Z</time>
      </trkpt>
      <trkpt lat="42.05487" lon="8.71295">
        <ele>0.15</ele>
        <time>2017-06-06T10:21:57Z</time>
      </trkpt>
      <trkpt lat="42.05485" lon="8.71302">
        <ele>-0.21</ele>
        <time>2017-06-06T10:22:16Z</time>
      </trkpt>
      <trkpt lat="42.0548" lon="8.71304">
        <ele>-0.45</ele>
        <time>2017-06-06T10:22:33Z</time>
      </trkpt>
      <trkpt lat="42.05472" lon="8.71302">
        <ele>0.37</ele>
        <time>2017-06-06T10:22:40Z</time>
      </trkpt>
      <trkpt lat="42.05448" lon="8.71285">
        <ele>-0.27</ele>
        <time>2017-06-06T10:22:57Z</time>
      </trkpt>
      <trkpt lat="42.0544" lon="8.71279">
        <ele>-0.39</ele>
        <time>2017-06-06T10:23:02Z</time>
      </trkpt>
      <trkpt lat="42.05433" lon="8.71274">
        <ele>-0.17</ele>
        <time>2017-06-06T10:23:06Z</time>
      </trkpt>
      <trkpt lat="42.05404" lon="8.71255">
        <ele>-0.27</ele>
        <time>2017-06-06T10:23:22Z</time>
      </trkpt>
      <trkpt lat="42.05377" lon="8.71232">
        <ele>-0.27</ele>
        <time>2017-06-06T10:23:37Z</time>
      </trkpt>
      <trkpt lat="42.0535" lon="8.71209">
        <ele>-0.36</ele>
        <time>2017-06-06T10:23:53Z</time>
      </trkpt>
      <trkpt lat="42.05323" lon="8.71182">
        <ele>-0.35</ele>
        <time>2017-06-06T10:24:10Z</time>
      </trkpt>
      <trkpt lat="42.05295" lon="8.7116">
        <ele>-0.45</ele>
        <time>2017-06-06T10:24:26Z</time>
      </trkpt>
      <trkpt lat="42.0528" lon="8.71145">
        <ele>-0.55</ele>
        <time>2017-06-06T10:24:38Z</time>
      </trkpt>
      <trkpt lat="42.0526" lon="8.71126">
        <ele>-0.53</ele>
        <time>2017-06-06T10:24:51Z</time>
      </trkpt>
      <trkpt lat="42.05235" lon="8.711">
        <ele>-0.53</ele>
        <time>2017-06-06T10:25:07Z</time>
      </trkpt>
      <trkpt lat="42.05215" lon="8.71077">
        <ele>-0.64</ele>
        <time>2017-06-06T10:25:20Z</time>
      </trkpt>
      <trkpt lat="42.05198" lon="8.7105">
        <ele>-0.8</ele>
        <time>2017-06-06T10:25:33Z</time>
      </trkpt>
      <trkpt lat="42.05178" lon="8.71029">
        <ele>-0.54</ele>
        <time>2017-06-06T10:25:45Z</time>
      </trkpt>
      <trkpt lat="42.05156" lon="8.71">
        <ele>-0.74</ele>
        <time>2017-06-06T10:26:01Z</time>
      </trkpt>
      <trkpt lat="42.05141" lon="8.70979">
        <ele>-0.71</ele>
        <time>2017-06-06T10:26:12Z</time>
      </trkpt>
      <trkpt lat="42.05118" lon="8.70955">
        <ele>-0.56</ele>
        <time>2017-06-06T10:26:27Z</time>
      </trkpt>
      <trkpt lat="42.05104" lon="8.70943">
        <ele>-0.65</ele>
        <time>2017-06-06T10:26:35Z</time>
      </trkpt>
      <trkpt lat="42.05084" lon="8.70926">
        <ele>-0.78</ele>
        <time>2017-06-06T10:26:47Z</time>
      </trkpt>
      <trkpt lat="42.05057" lon="8.709">
        <ele>-0.79</ele>
        <time>2017-06-06T10:27:04Z</time>
      </trkpt>
      <trkpt lat="42.05026" lon="8.70866">
        <ele>-0.78</ele>
        <time>2017-06-06T10:27:23Z</time>
      </trkpt>
      <trkpt lat="42.05008" lon="8.7085">
        <ele>-0.92</ele>
        <time>2017-06-06T10:27:36Z</time>
      </trkpt>
      <trkpt lat="42.04987" lon="8.70831">
        <ele>-0.93</ele>
        <time>2017-06-06T10:27:49Z</time>
      </trkpt>
      <trkpt lat="42.04965" lon="8.70806">
        <ele>-1.03</ele>
        <time>2017-06-06T10:28:04Z</time>
      </trkpt>
      <trkpt lat="42.04941" lon="8.70779">
        <ele>-1.04</ele>
        <time>2017-06-06T10:28:19Z</time>
      </trkpt>
      <trkpt lat="42.04919" lon="8.70759">
        <ele>-1.11</ele>
        <time>2017-06-06T10:28:32Z</time>
      </trkpt>
      <trkpt lat="42.04893" lon="8.7075">
        <ele>-1.18</ele>
        <time>2017-06-06T10:28:45Z</time>
      </trkpt>
      <trkpt lat="42.04872" lon="8.70732">
        <ele>-1.21</ele>
        <time>2017-06-06T10:28:58Z</time>
      </trkpt>
      <trkpt lat="42.04848" lon="8.70705">
        <ele>-1.08</ele>
        <time>2017-06-06T10:29:13Z</time>
      </trkpt>
      <trkpt lat="42.04828" lon="8.7068">
        <ele>-1.16</ele>
        <time>2017-06-06T10:29:27Z</time>
      </trkpt>
      <trkpt lat="42.0481" lon="8.7067">
        <ele>-1.13</ele>
        <time>2017-06-06T10:29:39Z</time>
      </trkpt>
      <trkpt lat="42.04779" lon="8.70651">
        <ele>-1.08</ele>
        <time>2017-06-06T10:29:56Z</time>
      </trkpt>
      <trkpt lat="42.04755" lon="8.7063">
        <ele>-1.19</ele>
        <time>2017-06-06T10:30:11Z</time>
      </trkpt>
      <trkpt lat="42.04738" lon="8.70613">
        <ele>-1.22</ele>
        <time>2017-06-06T10:30:22Z</time>
      </trkpt>
      <trkpt lat="42.04713" lon="8.7059">
        <ele>-1.57</ele>
        <time>2017-06-06T10:30:35Z</time>
      </trkpt>
      <trkpt lat="42.04691" lon="8.70565">
        <ele>-1.5</ele>
        <time>2017-06-06T10:30:48Z</time>
      </trkpt>
      <trkpt lat="42.04673" lon="8.70541">
        <ele>-1.32</ele>
        <time>2017-06-06T10:31:00Z</time>
      </trkpt>
      <trkpt lat="42.04652" lon="8.70519">
        <ele>-1.44</ele>
        <time>2017-06-06T10:31:14Z</time>
      </trkpt>
      <trkpt lat="42.04632" lon="8.70497">
        <ele>-1.46</ele>
        <time>2017-06-06T10:31:27Z</time>
      </trkpt>
      <trkpt lat="42.04612" lon="8.70474">
        <ele>-1.26</ele>
        <time>2017-06-06T10:31:39Z</time>
      </trkpt>
      <trkpt lat="42.04596" lon="8.70452">
        <ele>-1.68</ele>
        <time>2017-06-06T10:31:51Z</time>
      </trkpt>
      <trkpt lat="42.04574" lon="8.70437">
        <ele>-1.77</ele>
        <time>2017-06-06T10:32:05Z</time>
      </trkpt>
      <trkpt lat="42.04559" lon="8.70424">
        <ele>-1.69</ele>
        <time>2017-06-06T10:32:15Z</time>
      </trkpt>
      <trkpt lat="42.04539" lon="8.70414">
        <ele>-1.78</ele>
        <time>2017-06-06T10:32:30Z</time>
      </trkpt>
      <trkpt lat="42.04522" lon="8.70403">
        <ele>-1.95</ele>
        <time>2017-06-06T10:32:44Z</time>
      </trkpt>
      <trkpt lat="42.04521" lon="8.70402">
        <ele>-2</ele>
        <time>2017-06-06T10:32:45Z</time>
      </trkpt>
      <trkpt lat="42.04518" lon="8.70401">
        <ele>-2.05</ele>
        <time>2017-06-06T10:32:48Z</time>
      </trkpt>
      <trkpt lat="42.04511" lon="8.70395">
        <ele>-1.81</ele>
        <time>2017-06-06T10:32:54Z</time>
      </trkpt>
      <trkpt lat="42.04496" lon="8.70376">
        <ele>-1.94</ele>
        <time>2017-06-06T10:33:07Z</time>
      </trkpt>
      <trkpt lat="42.04472" lon="8.70355">
        <ele>-1.95</ele>
        <time>2017-06-06T10:33:21Z</time>
      </trkpt>
      <trkpt lat="42.04454" lon="8.70332">
        <ele>-2.08</ele>
        <time>2017-06-06T10:33:34Z</time>
      </trkpt>
      <trkpt lat="42.04436" lon="8.70315">
        <ele>-2.13</ele>
        <time>2017-06-06T10:33:46Z</time>
      </trkpt>
      <trkpt lat="42.04415" lon="8.70294">
        <ele>-2.34</ele>
        <time>2017-06-06T10:34:00Z</time>
      </trkpt>
      <trkpt lat="42.04396" lon="8.70273">
        <ele>-2.12</ele>
        <time>2017-06-06T10:34:13Z</time>
      </trkpt>
      <trkpt lat="42.04377" lon="8.70254">
        <ele>-2.51</ele>
        <time>2017-06-06T10:34:26Z</time>
      </trkpt>
      <trkpt lat="42.04359" lon="8.70235">
        <ele>-2.58</ele>
        <time>2017-06-06T10:34:39Z</time>
      </trkpt>
      <trkpt lat="42.04342" lon="8.70216">
        <ele>-2.38</ele>
        <time>2017-06-06T10:34:50Z</time>
      </trkpt>
      <trkpt lat="42.04327" lon="8.702">
        <ele>-2.55</ele>
        <time>2017-06-06T10:35:00Z</time>
      </trkpt>
      <trkpt lat="42.04309" lon="8.70181">
        <ele>-2.34</ele>
        <time>2017-06-06T10:35:11Z</time>
      </trkpt>
      <trkpt lat="42.04291" lon="8.7016">
        <ele>-2.55</ele>
        <time>2017-06-06T10:35:24Z</time>
      </trkpt>
      <trkpt lat="42.04287" lon="8.70154">
        <ele>-2.65</ele>
        <time>2017-06-06T10:35:38Z</time>
      </trkpt>
      <trkpt lat="42.04285" lon="8.70149">
        <ele>-2.69</ele>
        <time>2017-06-06T10:35:46Z</time>
      </trkpt>
      <trkpt lat="42.04285" lon="8.70144">
        <ele>-2.75</ele>
        <time>2017-06-06T10:35:50Z</time>
      </trkpt>
      <trkpt lat="42.04291" lon="8.70121">
        <ele>-3.16</ele>
        <time>2017-06-06T10:36:05Z</time>
      </trkpt>
      <trkpt lat="42.04308" lon="8.70115">
        <ele>-3.42</ele>
        <time>2017-06-06T10:36:19Z</time>
      </trkpt>
      <trkpt lat="42.04309" lon="8.70115">
        <ele>-3.46</ele>
        <time>2017-06-06T10:36:20Z</time>
      </trkpt>
      <trkpt lat="42.04325" lon="8.70133">
        <ele>-3.34</ele>
        <time>2017-06-06T10:36:34Z</time>
      </trkpt>
      <trkpt lat="42.04342" lon="8.7017">
        <ele>-3.11</ele>
        <time>2017-06-06T10:36:50Z</time>
      </trkpt>
      <trkpt lat="42.04362" lon="8.70196">
        <ele>-3.34</ele>
        <time>2017-06-06T10:37:03Z</time>
      </trkpt>
      <trkpt lat="42.04388" lon="8.70222">
        <ele>-3.19</ele>
        <time>2017-06-06T10:37:17Z</time>
      </trkpt>
      <trkpt lat="42.04411" lon="8.7024">
        <ele>-3.53</ele>
        <time>2017-06-06T10:37:29Z</time>
      </trkpt>
      <trkpt lat="42.04433" lon="8.70258">
        <ele>-3.35</ele>
        <time>2017-06-06T10:37:41Z</time>
      </trkpt>
      <trkpt lat="42.0446" lon="8.7028">
        <ele>-3.3</ele>
        <time>2017-06-06T10:37:57Z</time>
      </trkpt>
      <trkpt lat="42.04476" lon="8.70292">
        <ele>-3.64</ele>
        <time>2017-06-06T10:38:06Z</time>
      </trkpt>
      <trkpt lat="42.04484" lon="8.70293">
        <ele>-3.68</ele>
        <time>2017-06-06T10:38:10Z</time>
      </trkpt>
      <trkpt lat="42.04506" lon="8.703">
        <ele>-3.73</ele>
        <time>2017-06-06T10:38:23Z</time>
      </trkpt>
      <trkpt lat="42.04517" lon="8.70304">
        <ele>-3.65</ele>
        <time>2017-06-06T10:38:28Z</time>
      </trkpt>
      <trkpt lat="42.04541" lon="8.70314">
        <ele>-3.43</ele>
        <time>2017-06-06T10:38:44Z</time>
      </trkpt>
      <trkpt lat="42.04562" lon="8.70325">
        <ele>-3.59</ele>
        <time>2017-06-06T10:38:57Z</time>
      </trkpt>
      <trkpt lat="42.04584" lon="8.70329">
        <ele>-3.62</ele>
        <time>2017-06-06T10:39:09Z</time>
      </trkpt>
      <trkpt lat="42.04596" lon="8.70332">
        <ele>-3.76</ele>
        <time>2017-06-06T10:39:18Z</time>
      </trkpt>
      <trkpt lat="42.04611" lon="8.70347">
        <ele>-3.33</ele>
        <time>2017-06-06T10:39:31Z</time>
      </trkpt>
      <trkpt lat="42.04615" lon="8.70359">
        <ele>-3.26</ele>
        <time>2017-06-06T10:39:39Z</time>
      </trkpt>
      <trkpt lat="42.04612" lon="8.70382">
        <ele>-3.29</ele>
        <time>2017-06-06T10:39:49Z</time>
      </trkpt>
      <trkpt lat="42.0461" lon="8.70429">
        <ele>-3.19</ele>
        <time>2017-06-06T10:40:03Z</time>
      </trkpt>
      <trkpt lat="42.04607" lon="8.70473">
        <ele>-3.28</ele>
        <time>2017-06-06T10:40:16Z</time>
      </trkpt>
      <trkpt lat="42.04608" lon="8.70511">
        <ele>-3.25</ele>
        <time>2017-06-06T10:40:28Z</time>
      </trkpt>
      <trkpt lat="42.0461" lon="8.70552">
        <ele>-3.14</ele>
        <time>2017-06-06T10:40:42Z</time>
      </trkpt>
      <trkpt lat="42.04613" lon="8.70596">
        <ele>-3.31</ele>
        <time>2017-06-06T10:40:56Z</time>
      </trkpt>
      <trkpt lat="42.04615" lon="8.70631">
        <ele>-3.34</ele>
        <time>2017-06-06T10:41:07Z</time>
      </trkpt>
      <trkpt lat="42.04614" lon="8.70663">
        <ele>-3.3</ele>
        <time>2017-06-06T10:41:18Z</time>
      </trkpt>
      <trkpt lat="42.04614" lon="8.70704">
        <ele>-3.43</ele>
        <time>2017-06-06T10:41:31Z</time>
      </trkpt>
      <trkpt lat="42.04613" lon="8.70742">
        <ele>-3.3</ele>
        <time>2017-06-06T10:41:44Z</time>
      </trkpt>
      <trkpt lat="42.04612" lon="8.70768">
        <ele>-3.14</ele>
        <time>2017-06-06T10:41:55Z</time>
      </trkpt>
      <trkpt lat="42.04612" lon="8.70805">
        <ele>-3.03</ele>
        <time>2017-06-06T10:42:07Z</time>
      </trkpt>
      <trkpt lat="42.04614" lon="8.7084">
        <ele>-3.07</ele>
        <time>2017-06-06T10:42:18Z</time>
      </trkpt>
      <trkpt lat="42.04614" lon="8.70871">
        <ele>-3.15</ele>
        <time>2017-06-06T10:42:31Z</time>
      </trkpt>
      <trkpt lat="42.04611" lon="8.70908">
        <ele>-3.05</ele>
        <time>2017-06-06T10:42:45Z</time>
      </trkpt>
      <trkpt lat="42.04612" lon="8.70944">
        <ele>-2.99</ele>
        <time>2017-06-06T10:42:56Z</time>
      </trkpt>
      <trkpt lat="42.04612" lon="8.70989">
        <ele>-3.21</ele>
        <time>2017-06-06T10:43:10Z</time>
      </trkpt>
      <trkpt lat="42.04617" lon="8.71035">
        <ele>-2.95</ele>
        <time>2017-06-06T10:43:24Z</time>
      </trkpt>
      <trkpt lat="42.04619" lon="8.71085">
        <ele>-2.92</ele>
        <time>2017-06-06T10:43:38Z</time>
      </trkpt>
      <trkpt lat="42.04625" lon="8.7112">
        <ele>-3.06</ele>
        <time>2017-06-06T10:43:49Z</time>
      </trkpt>
      <trkpt lat="42.04628" lon="8.71159">
        <ele>-2.8</ele>
        <time>2017-06-06T10:44:01Z</time>
      </trkpt>
      <trkpt lat="42.04629" lon="8.71201">
        <ele>-3.11</ele>
        <time>2017-06-06T10:44:13Z</time>
      </trkpt>
      <trkpt lat="42.04629" lon="8.71238">
        <ele>-3.22</ele>
        <time>2017-06-06T10:44:24Z</time>
      </trkpt>
      <trkpt lat="42.04626" lon="8.71273">
        <ele>-3.34</ele>
        <time>2017-06-06T10:44:36Z</time>
      </trkpt>
      <trkpt lat="42.04624" lon="8.71302">
        <ele>-3.35</ele>
        <time>2017-06-06T10:44:46Z</time>
      </trkpt>
      <trkpt lat="42.04621" lon="8.71334">
        <ele>-3.29</ele>
        <time>2017-06-06T10:44:58Z</time>
      </trkpt>
      <trkpt lat="42.04619" lon="8.71377">
        <ele>-3.29</ele>
        <time>2017-06-06T10:45:11Z</time>
      </trkpt>
      <trkpt lat="42.04616" lon="8.71409">
        <ele>-3.34</ele>
        <time>2017-06-06T10:45:24Z</time>
      </trkpt>
      <trkpt lat="42.04614" lon="8.71448">
        <ele>-3.61</ele>
        <time>2017-06-06T10:45:34Z</time>
      </trkpt>
      <trkpt lat="42.04613" lon="8.71473">
        <ele>-3.34</ele>
        <time>2017-06-06T10:45:46Z</time>
      </trkpt>
      <trkpt lat="42.04612" lon="8.71504">
        <ele>-3.37</ele>
        <time>2017-06-06T10:45:58Z</time>
      </trkpt>
      <trkpt lat="42.04615" lon="8.71535">
        <ele>-3.47</ele>
        <time>2017-06-06T10:46:08Z</time>
      </trkpt>
      <trkpt lat="42.04613" lon="8.71569">
        <ele>-3.49</ele>
        <time>2017-06-06T10:46:19Z</time>
      </trkpt>
      <trkpt lat="42.04611" lon="8.71606">
        <ele>-3.48</ele>
        <time>2017-06-06T10:46:31Z</time>
      </trkpt>
      <trkpt lat="42.04611" lon="8.71635">
        <ele>-3.49</ele>
        <time>2017-06-06T10:46:41Z</time>
      </trkpt>
      <trkpt lat="42.04611" lon="8.71676">
        <ele>-3.48</ele>
        <time>2017-06-06T10:46:54Z</time>
      </trkpt>
      <trkpt lat="42.04614" lon="8.71724">
        <ele>-3.74</ele>
        <time>2017-06-06T10:47:07Z</time>
      </trkpt>
      <trkpt lat="42.04618" lon="8.71751">
        <ele>-3.63</ele>
        <time>2017-06-06T10:47:16Z</time>
      </trkpt>
      <trkpt lat="42.04623" lon="8.71788">
        <ele>-3.51</ele>
        <time>2017-06-06T10:47:30Z</time>
      </trkpt>
      <trkpt lat="42.04621" lon="8.71834">
        <ele>-3.48</ele>
        <time>2017-06-06T10:47:45Z</time>
      </trkpt>
      <trkpt lat="42.0462" lon="8.71873">
        <ele>-3.35</ele>
        <time>2017-06-06T10:47:59Z</time>
      </trkpt>
      <trkpt lat="42.04616" lon="8.71909">
        <ele>-3.51</ele>
        <time>2017-06-06T10:48:11Z</time>
      </trkpt>
      <trkpt lat="42.04616" lon="8.71946">
        <ele>-3.44</ele>
        <time>2017-06-06T10:48:26Z</time>
      </trkpt>
      <trkpt lat="42.04621" lon="8.71991">
        <ele>-3.46</ele>
        <time>2017-06-06T10:48:41Z</time>
      </trkpt>
      <trkpt lat="42.04627" lon="8.72031">
        <ele>-3.43</ele>
        <time>2017-06-06T10:48:53Z</time>
      </trkpt>
      <trkpt lat="42.04639" lon="8.72072">
        <ele>-3.55</ele>
        <time>2017-06-06T10:49:06Z</time>
      </trkpt>
      <trkpt lat="42.04643" lon="8.72121">
        <ele>-3.78</ele>
        <time>2017-06-06T10:49:22Z</time>
      </trkpt>
      <trkpt lat="42.04646" lon="8.72168">
        <ele>-3.81</ele>
        <time>2017-06-06T10:49:34Z</time>
      </trkpt>
      <trkpt lat="42.04645" lon="8.722">
        <ele>-3.62</ele>
        <time>2017-06-06T10:49:45Z</time>
      </trkpt>
      <trkpt lat="42.04644" lon="8.72238">
        <ele>-3.86</ele>
        <time>2017-06-06T10:49:58Z</time>
      </trkpt>
      <trkpt lat="42.04647" lon="8.7228">
        <ele>-3.75</ele>
        <time>2017-06-06T10:50:10Z</time>
      </trkpt>
      <trkpt lat="42.04645" lon="8.72315">
        <ele>-3.62</ele>
        <time>2017-06-06T10:50:21Z</time>
      </trkpt>
      <trkpt lat="42.04643" lon="8.72353">
        <ele>-3.49</ele>
        <time>2017-06-06T10:50:33Z</time>
      </trkpt>
      <trkpt lat="42.04641" lon="8.72391">
        <ele>-3.21</ele>
        <time>2017-06-06T10:50:45Z</time>
      </trkpt>
      <trkpt lat="42.04638" lon="8.72429">
        <ele>-3.48</ele>
        <time>2017-06-06T10:50:58Z</time>
      </trkpt>
      <trkpt lat="42.04636" lon="8.72462">
        <ele>-3.21</ele>
        <time>2017-06-06T10:51:12Z</time>
      </trkpt>
      <trkpt lat="42.04635" lon="8.72507">
        <ele>-3.44</ele>
        <time>2017-06-06T10:51:27Z</time>
      </trkpt>
      <trkpt lat="42.04632" lon="8.7255">
        <ele>-3.32</ele>
        <time>2017-06-06T10:51:41Z</time>
      </trkpt>
      <trkpt lat="42.0463" lon="8.72586">
        <ele>-3.06</ele>
        <time>2017-06-06T10:51:52Z</time>
      </trkpt>
      <trkpt lat="42.04627" lon="8.72622">
        <ele>-3.13</ele>
        <time>2017-06-06T10:52:05Z</time>
      </trkpt>
      <trkpt lat="42.04626" lon="8.72664">
        <ele>-3.2</ele>
        <time>2017-06-06T10:52:19Z</time>
      </trkpt>
      <trkpt lat="42.04621" lon="8.72712">
        <ele>-3.35</ele>
        <time>2017-06-06T10:52:36Z</time>
      </trkpt>
      <trkpt lat="42.04618" lon="8.72752">
        <ele>-3.43</ele>
        <time>2017-06-06T10:52:51Z</time>
      </trkpt>
      <trkpt lat="42.04616" lon="8.72778">
        <ele>-3.31</ele>
        <time>2017-06-06T10:53:03Z</time>
      </trkpt>
      <trkpt lat="42.04614" lon="8.72816">
        <ele>-3.36</ele>
        <time>2017-06-06T10:53:17Z</time>
      </trkpt>
      <trkpt lat="42.04609" lon="8.72859">
        <ele>-3.44</ele>
        <time>2017-06-06T10:53:29Z</time>
      </trkpt>
      <trkpt lat="42.04606" lon="8.72907">
        <ele>-3.39</ele>
        <time>2017-06-06T10:53:44Z</time>
      </trkpt>
      <trkpt lat="42.04606" lon="8.72949">
        <ele>-3.66</ele>
        <time>2017-06-06T10:53:58Z</time>
      </trkpt>
      <trkpt lat="42.04603" lon="8.72998">
        <ele>-3.24</ele>
        <time>2017-06-06T10:54:12Z</time>
      </trkpt>
      <trkpt lat="42.04599" lon="8.73043">
        <ele>-3.36</ele>
        <time>2017-06-06T10:54:25Z</time>
      </trkpt>
      <trkpt lat="42.04595" lon="8.7309">
        <ele>-3.47</ele>
        <time>2017-06-06T10:54:39Z</time>
      </trkpt>
      <trkpt lat="42.04593" lon="8.73129">
        <ele>-3.61</ele>
        <time>2017-06-06T10:54:51Z</time>
      </trkpt>
      <trkpt lat="42.0459" lon="8.73165">
        <ele>-3.27</ele>
        <time>2017-06-06T10:55:04Z</time>
      </trkpt>
      <trkpt lat="42.04589" lon="8.73193">
        <ele>-3.22</ele>
        <time>2017-06-06T10:55:15Z</time>
      </trkpt>
      <trkpt lat="42.04589" lon="8.73223">
        <ele>-3.08</ele>
        <time>2017-06-06T10:55:26Z</time>
      </trkpt>
      <trkpt lat="42.04586" lon="8.73265">
        <ele>-3.22</ele>
        <time>2017-06-06T10:55:40Z</time>
      </trkpt>
      <trkpt lat="42.04581" lon="8.73307">
        <ele>-3.16</ele>
        <time>2017-06-06T10:55:54Z</time>
      </trkpt>
      <trkpt lat="42.04579" lon="8.73339">
        <ele>-3.08</ele>
        <time>2017-06-06T10:56:06Z</time>
      </trkpt>
      <trkpt lat="42.04578" lon="8.73366">
        <ele>-3.09</ele>
        <time>2017-06-06T10:56:18Z</time>
      </trkpt>
      <trkpt lat="42.04583" lon="8.73392">
        <ele>-3.34</ele>
        <time>2017-06-06T10:56:30Z</time>
      </trkpt>
      <trkpt lat="42.04586" lon="8.73405">
        <ele>-3.52</ele>
        <time>2017-06-06T10:56:37Z</time>
      </trkpt>
      <trkpt lat="42.04592" lon="8.73427">
        <ele>-2.99</ele>
        <time>2017-06-06T10:56:51Z</time>
      </trkpt>
      <trkpt lat="42.04593" lon="8.73448">
        <ele>-3.13</ele>
        <time>2017-06-06T10:57:11Z</time>
      </trkpt>
      <trkpt lat="42.04595" lon="8.73462">
        <ele>-3.06</ele>
        <time>2017-06-06T10:57:23Z</time>
      </trkpt>
      <trkpt lat="42.04596" lon="8.73466">
        <ele>-3.2</ele>
        <time>2017-06-06T10:57:26Z</time>
      </trkpt>
      <trkpt lat="42.04598" lon="8.73485">
        <ele>-4.21</ele>
        <time>2017-06-06T10:57:41Z</time>
      </trkpt>
      <trkpt lat="42.04599" lon="8.73497">
        <ele>-2.58</ele>
        <time>2017-06-06T10:58:00Z</time>
      </trkpt>
      <trkpt lat="42.04599" lon="8.73499">
        <ele>-2.65</ele>
        <time>2017-06-06T10:58:01Z</time>
      </trkpt>
      <trkpt lat="42.04601" lon="8.73523">
        <ele>-3</ele>
        <time>2017-06-06T10:58:11Z</time>
      </trkpt>
      <trkpt lat="42.04606" lon="8.73568">
        <ele>-3.37</ele>
        <time>2017-06-06T10:58:25Z</time>
      </trkpt>
      <trkpt lat="42.04616" lon="8.7361">
        <ele>-3.57</ele>
        <time>2017-06-06T10:58:37Z</time>
      </trkpt>
      <trkpt lat="42.04622" lon="8.73645">
        <ele>-3.35</ele>
        <time>2017-06-06T10:58:50Z</time>
      </trkpt>
      <trkpt lat="42.04627" lon="8.73682">
        <ele>-3.38</ele>
        <time>2017-06-06T10:59:03Z</time>
      </trkpt>
      <trkpt lat="42.04634" lon="8.73724">
        <ele>-3.35</ele>
        <time>2017-06-06T10:59:17Z</time>
      </trkpt>
      <trkpt lat="42.04643" lon="8.73766">
        <ele>-3.02</ele>
        <time>2017-06-06T10:59:33Z</time>
      </trkpt>
      <trkpt lat="42.0465" lon="8.73797">
        <ele>-3.01</ele>
        <time>2017-06-06T10:59:45Z</time>
      </trkpt>
      <trkpt lat="42.04656" lon="8.73822">
        <ele>-2.92</ele>
        <time>2017-06-06T10:59:59Z</time>
      </trkpt>
      <trkpt lat="42.04658" lon="8.73861">
        <ele>-3.4</ele>
        <time>2017-06-06T11:00:15Z</time>
      </trkpt>
      <trkpt lat="42.04663" lon="8.73901">
        <ele>-3.27</ele>
        <time>2017-06-06T11:00:28Z</time>
      </trkpt>
      <trkpt lat="42.04668" lon="8.73935">
        <ele>-3.39</ele>
        <time>2017-06-06T11:00:40Z</time>
      </trkpt>
      <trkpt lat="42.04674" lon="8.73966">
        <ele>-3.36</ele>
        <time>2017-06-06T11:00:52Z</time>
      </trkpt>
      <trkpt lat="42.0468" lon="8.73997">
        <ele>-3.34</ele>
        <time>2017-06-06T11:01:04Z</time>
      </trkpt>
      <trkpt lat="42.04689" lon="8.74037">
        <ele>-3.34</ele>
        <time>2017-06-06T11:01:18Z</time>
      </trkpt>
      <trkpt lat="42.04695" lon="8.74065">
        <ele>-3.1</ele>
        <time>2017-06-06T11:01:28Z</time>
      </trkpt>
      <trkpt lat="42.04701" lon="8.74101">
        <ele>-3.16</ele>
        <time>2017-06-06T11:01:40Z</time>
      </trkpt>
      <trkpt lat="42.04708" lon="8.74132">
        <ele>-3.25</ele>
        <time>2017-06-06T11:01:51Z</time>
      </trkpt>
      <trkpt lat="42.04712" lon="8.74166">
        <ele>-3.12</ele>
        <time>2017-06-06T11:02:04Z</time>
      </trkpt>
      <trkpt lat="42.04714" lon="8.74173">
        <ele>-3.29</ele>
        <time>2017-06-06T11:02:08Z</time>
      </trkpt>
      <trkpt lat="42.04717" lon="8.74205">
        <ele>-3.04</ele>
        <time>2017-06-06T11:02:20Z</time>
      </trkpt>
      <trkpt lat="42.04719" lon="8.74231">
        <ele>-2.94</ele>
        <time>2017-06-06T11:02:30Z</time>
      </trkpt>
      <trkpt lat="42.04718" lon="8.74272">
        <ele>-3.4</ele>
        <time>2017-06-06T11:02:45Z</time>
      </trkpt>
      <trkpt lat="42.04716" lon="8.74308">
        <ele>-3.08</ele>
        <time>2017-06-06T11:02:59Z</time>
      </trkpt>
      <trkpt lat="42.04719" lon="8.74339">
        <ele>-3.09</ele>
        <time>2017-06-06T11:03:11Z</time>
      </trkpt>
      <trkpt lat="42.04727" lon="8.74377">
        <ele>-2.99</ele>
        <time>2017-06-06T11:03:25Z</time>
      </trkpt>
      <trkpt lat="42.04738" lon="8.74412">
        <ele>-3.2</ele>
        <time>2017-06-06T11:03:37Z</time>
      </trkpt>
      <trkpt lat="42.04743" lon="8.74437">
        <ele>-3.46</ele>
        <time>2017-06-06T11:03:49Z</time>
      </trkpt>
      <trkpt lat="42.04741" lon="8.74457">
        <ele>-3.04</ele>
        <time>2017-06-06T11:04:00Z</time>
      </trkpt>
      <trkpt lat="42.04743" lon="8.74488">
        <ele>-3.25</ele>
        <time>2017-06-06T11:04:15Z</time>
      </trkpt>
      <trkpt lat="42.04745" lon="8.74513">
        <ele>-3.2</ele>
        <time>2017-06-06T11:04:27Z</time>
      </trkpt>
      <trkpt lat="42.04747" lon="8.74537">
        <ele>-3.14</ele>
        <time>2017-06-06T11:04:39Z</time>
      </trkpt>
      <trkpt lat="42.04748" lon="8.7455">
        <ele>-3.06</ele>
        <time>2017-06-06T11:04:53Z</time>
      </trkpt>
      <trkpt lat="42.04752" lon="8.74563">
        <ele>-3.21</ele>
        <time>2017-06-06T11:05:20Z</time>
      </trkpt>
      <trkpt lat="42.04761" lon="8.74586">
        <ele>-3.48</ele>
        <time>2017-06-06T11:05:31Z</time>
      </trkpt>
      <trkpt lat="42.04779" lon="8.74611">
        <ele>-3.51</ele>
        <time>2017-06-06T11:05:45Z</time>
      </trkpt>
      <trkpt lat="42.04801" lon="8.74629">
        <ele>-3.95</ele>
        <time>2017-06-06T11:05:58Z</time>
      </trkpt>
      <trkpt lat="42.04818" lon="8.74639">
        <ele>-3.66</ele>
        <time>2017-06-06T11:06:10Z</time>
      </trkpt>
      <trkpt lat="42.04821" lon="8.74642">
        <ele>-3.47</ele>
        <time>2017-06-06T11:06:13Z</time>
      </trkpt>
      <trkpt lat="42.0483" lon="8.7467">
        <ele>-3.55</ele>
        <time>2017-06-06T11:06:27Z</time>
      </trkpt>
      <trkpt lat="42.04829" lon="8.74688">
        <ele>-3.31</ele>
        <time>2017-06-06T11:06:42Z</time>
      </trkpt>
      <trkpt lat="42.04829" lon="8.74686">
        <ele>-3.13</ele>
        <time>2017-06-06T11:06:58Z</time>
      </trkpt>
      <trkpt lat="42.0483" lon="8.74687">
        <ele>-12.03</ele>
        <time>2017-06-06T11:07:03Z</time>
      </trkpt>
    </trkseg>
  </trk>
</gpx>